DLH430 EDDF-KORD
Flight info
| Callsign | DLH430 |
|---|---|
| Flight time | N/A |
| Altitude | 38000 |
| Route | MARUN8M/25C MARUN Y152 ARPEG Z850 ABILU DCT RKN DCT LONAM DCT ODMOS DCT UPNAL DCT NALAN/M085F360 DCT 62N010W 64N020W 65N030W 65N040W 64N050W DCT KETLA DCT GRIBS/N0497F380 DCT 5830N07000W 53N080W DCT KP09O DCT OVETE ERNNY8 |
| Aircraft | B748/H-SDE3FGHIM1M2RWXY/LB1 |
Departure
| Time | 2026-04-17 12:34 |
|---|---|
| Airport | Frankfurt Main Airport (EDDF) |
Arrival
| Time | N/A |
|---|---|
| Airport | Chicago O'Hare International Airport (KORD) |
| Time | Latitude | Longitude | Altitude | Speed | Heading |
|---|---|---|---|---|---|
| 2026-04-17 11:59 | 50.04700 | 8.56159 | 370 ft | 0 kts | 339° |
| 2026-04-17 12:21 | 50.04696 | 8.56161 | 373 ft | 2 kts | 339° |
| 2026-04-17 12:21 | 50.04681 | 8.56170 | 372 ft | 2 kts | 338° |
| 2026-04-17 12:21 | 50.04666 | 8.56179 | 370 ft | 2 kts | 339° |
| 2026-04-17 12:22 | 50.04652 | 8.56190 | 374 ft | 2 kts | 326° |
| 2026-04-17 12:22 | 50.04639 | 8.56205 | 370 ft | 2 kts | 316° |
| 2026-04-17 12:22 | 50.04628 | 8.56224 | 370 ft | 2 kts | 300° |
| 2026-04-17 12:22 | 50.04622 | 8.56244 | 370 ft | 1 kts | 264° |
| 2026-04-17 12:23 | 50.04622 | 8.56248 | 370 ft | 0 kts | 252° |
| 2026-04-17 12:24 | 50.04620 | 8.56240 | 370 ft | 2 kts | 251° |
| 2026-04-17 12:25 | 50.04614 | 8.56213 | 375 ft | 3 kts | 249° |
| 2026-04-17 12:25 | 50.04606 | 8.56183 | 372 ft | 3 kts | 249° |
| 2026-04-17 12:25 | 50.04597 | 8.56147 | 375 ft | 5 kts | 249° |
| 2026-04-17 12:25 | 50.04578 | 8.56067 | 374 ft | 10 kts | 249° |
| 2026-04-17 12:26 | 50.04542 | 8.55980 | 375 ft | 9 kts | 219° |
| 2026-04-17 12:26 | 50.04486 | 8.55941 | 375 ft | 9 kts | 197° |
| 2026-04-17 12:26 | 50.04430 | 8.55919 | 373 ft | 9 kts | 192° |
| 2026-04-17 12:26 | 50.04360 | 8.55923 | 375 ft | 12 kts | 169° |
| 2026-04-17 12:27 | 50.04286 | 8.55955 | 372 ft | 9 kts | 181° |
| 2026-04-17 12:27 | 50.04217 | 8.55924 | 370 ft | 12 kts | 187° |
| 2026-04-17 12:27 | 50.04121 | 8.55960 | 373 ft | 17 kts | 157° |
| 2026-04-17 12:27 | 50.04085 | 8.56097 | 374 ft | 15 kts | 78° |
| 2026-04-17 12:28 | 50.04125 | 8.56270 | 372 ft | 18 kts | 69° |
| 2026-04-17 12:28 | 50.04166 | 8.56444 | 370 ft | 17 kts | 70° |
| 2026-04-17 12:28 | 50.04205 | 8.56608 | 371 ft | 16 kts | 70° |
| 2026-04-17 12:28 | 50.04242 | 8.56765 | 375 ft | 15 kts | 69° |
| 2026-04-17 12:29 | 50.04278 | 8.56910 | 372 ft | 16 kts | 69° |
| 2026-04-17 12:29 | 50.04321 | 8.57088 | 375 ft | 20 kts | 70° |
| 2026-04-17 12:29 | 50.04373 | 8.57308 | 375 ft | 23 kts | 69° |
| 2026-04-17 12:29 | 50.04433 | 8.57555 | 373 ft | 25 kts | 70° |
| 2026-04-17 12:30 | 50.04489 | 8.57794 | 373 ft | 22 kts | 71° |
| 2026-04-17 12:30 | 50.04539 | 8.58003 | 375 ft | 20 kts | 70° |
| 2026-04-17 12:30 | 50.04587 | 8.58204 | 374 ft | 19 kts | 70° |
| 2026-04-17 12:30 | 50.04632 | 8.58399 | 373 ft | 19 kts | 70° |
| 2026-04-17 12:31 | 50.04624 | 8.58560 | 378 ft | 11 kts | 142° |
| 2026-04-17 12:31 | 50.04614 | 8.58569 | 372 ft | 0 kts | 152° |
| 2026-04-17 12:31 | 50.04613 | 8.58570 | 372 ft | 1 kts | 152° |
| 2026-04-17 12:32 | 50.04588 | 8.58588 | 376 ft | 7 kts | 156° |
| 2026-04-17 12:32 | 50.04525 | 8.58610 | 375 ft | 10 kts | 184° |
| 2026-04-17 12:32 | 50.04485 | 8.58566 | 379 ft | 8 kts | 232° |
| 2026-04-17 12:32 | 50.04470 | 8.58525 | 378 ft | 0 kts | 250° |
| 2026-04-17 12:33 | 50.04470 | 8.58524 | 378 ft | 0 kts | 250° |
| 2026-04-17 12:33 | 50.04455 | 8.58462 | 378 ft | 32 kts | 248° |
| 2026-04-17 12:34 | 50.04266 | 8.57667 | 374 ft | 124 kts | 250° |
| 2026-04-17 12:34 | 50.03873 | 8.55999 | 376 ft | 202 kts | 250° |
| 2026-04-17 12:34 | 50.03372 | 8.53879 | 1040 ft | 208 kts | 250° |
| 2026-04-17 12:34 | 50.02890 | 8.51745 | 1885 ft | 208 kts | 249° |
| 2026-04-17 12:35 | 50.02182 | 8.49831 | 2794 ft | 208 kts | 222° |
| 2026-04-17 12:35 | 50.00942 | 8.48708 | 2981 ft | 210 kts | 196° |
| 2026-04-17 12:35 | 49.99446 | 8.48214 | 2944 ft | 223 kts | 191° |
| 2026-04-17 12:35 | 49.97960 | 8.47773 | 3814 ft | 215 kts | 193° |
| 2026-04-17 12:37 | 49.91521 | 8.37494 | 8417 ft | 257 kts | 302° |
| 2026-04-17 12:37 | 49.92797 | 8.35529 | 9133 ft | 266 kts | 330° |
| 2026-04-17 12:38 | 49.94517 | 8.34328 | 9699 ft | 278 kts | 338° |
| 2026-04-17 12:38 | 49.96354 | 8.33243 | 10307 ft | 286 kts | 338° |
| 2026-04-17 12:38 | 49.98230 | 8.32052 | 10801 ft | 297 kts | 335° |
| 2026-04-17 12:38 | 50.00171 | 8.30743 | 11223 ft | 311 kts | 335° |
| 2026-04-17 12:39 | 50.02212 | 8.29379 | 11596 ft | 327 kts | 336° |
| 2026-04-17 12:39 | 50.04443 | 8.28337 | 11990 ft | 346 kts | 353° |
| 2026-04-17 12:39 | 50.06898 | 8.28555 | 12457 ft | 363 kts | 12° |
| 2026-04-17 12:39 | 50.09334 | 8.29759 | 13148 ft | 373 kts | 20° |
| 2026-04-17 12:40 | 50.11759 | 8.31313 | 13916 ft | 380 kts | 21° |
| 2026-04-17 12:40 | 50.14236 | 8.32821 | 14637 ft | 385 kts | 17° |
| 2026-04-17 12:40 | 50.16773 | 8.34084 | 15332 ft | 390 kts | 15° |
| 2026-04-17 12:40 | 50.19383 | 8.35343 | 16062 ft | 395 kts | 16° |
| 2026-04-17 12:41 | 50.22003 | 8.36731 | 16792 ft | 401 kts | 18° |
| 2026-04-17 12:41 | 50.24649 | 8.38180 | 17545 ft | 406 kts | 17° |
| 2026-04-17 12:41 | 50.27340 | 8.39602 | 18287 ft | 411 kts | 17° |
| 2026-04-17 12:41 | 50.30067 | 8.41014 | 18942 ft | 415 kts | 17° |
| 2026-04-17 12:42 | 50.32821 | 8.42500 | 19583 ft | 420 kts | 18° |
| 2026-04-17 12:42 | 50.35583 | 8.44042 | 20228 ft | 424 kts | 17° |
| 2026-04-17 12:42 | 50.38369 | 8.45576 | 20861 ft | 427 kts | 17° |
| 2026-04-17 12:42 | 50.41193 | 8.47102 | 21484 ft | 430 kts | 17° |
| 2026-04-17 12:43 | 50.44028 | 8.48642 | 22104 ft | 434 kts | 17° |
| 2026-04-17 12:43 | 50.46890 | 8.50216 | 22686 ft | 437 kts | 16° |
| 2026-04-17 12:43 | 50.49799 | 8.51611 | 23266 ft | 439 kts | 14° |
| 2026-04-17 12:43 | 50.52728 | 8.53019 | 23816 ft | 442 kts | 14° |
| 2026-04-17 12:44 | 50.54718 | 8.53994 | 24128 ft | 444 kts | 14° |
| 2026-04-17 12:44 | 50.58649 | 8.55889 | 24733 ft | 448 kts | 14° |
| 2026-04-17 12:44 | 50.61635 | 8.57305 | 25176 ft | 450 kts | 14° |
| 2026-04-17 12:44 | 50.63670 | 8.58278 | 25464 ft | 452 kts | 14° |
| 2026-04-17 12:45 | 50.67667 | 8.60211 | 26043 ft | 455 kts | 14° |
| 2026-04-17 12:45 | 50.69713 | 8.61200 | 26338 ft | 457 kts | 14° |
| 2026-04-17 12:45 | 50.72764 | 8.62665 | 26775 ft | 459 kts | 12° |
| 2026-04-17 12:45 | 50.75886 | 8.63574 | 27211 ft | 455 kts | 0° |
| 2026-04-17 12:46 | 50.80043 | 8.63145 | 27787 ft | 452 kts | 345° |
| 2026-04-17 12:46 | 50.82084 | 8.62245 | 28096 ft | 451 kts | 337° |
| 2026-04-17 12:46 | 50.84908 | 8.60117 | 28512 ft | 450 kts | 326° |
| 2026-04-17 12:46 | 50.87395 | 8.57119 | 28952 ft | 450 kts | 315° |
| 2026-04-17 12:47 | 50.89476 | 8.53504 | 29367 ft | 452 kts | 310° |
| 2026-04-17 12:47 | 50.91520 | 8.49703 | 29775 ft | 454 kts | 310° |
| 2026-04-17 12:47 | 50.93554 | 8.45863 | 30165 ft | 457 kts | 309° |
| 2026-04-17 12:47 | 50.95606 | 8.42002 | 30533 ft | 459 kts | 309° |
| 2026-04-17 12:48 | 50.97677 | 8.38129 | 30868 ft | 462 kts | 310° |
| 2026-04-17 12:48 | 50.99761 | 8.34238 | 31202 ft | 464 kts | 311° |
| 2026-04-17 12:48 | 51.02144 | 8.30669 | 31542 ft | 467 kts | 321° |
| 2026-04-17 12:48 | 51.04850 | 8.27802 | 31877 ft | 470 kts | 328° |
| 2026-04-17 12:49 | 51.07701 | 8.25253 | 32287 ft | 469 kts | 329° |
| 2026-04-17 12:49 | 51.10522 | 8.22743 | 32782 ft | 467 kts | 329° |
| 2026-04-17 12:49 | 51.13355 | 8.20227 | 33263 ft | 465 kts | 329° |
| 2026-04-17 12:49 | 51.16169 | 8.17719 | 33698 ft | 463 kts | 329° |
| 2026-04-17 12:50 | 51.18972 | 8.15213 | 34133 ft | 461 kts | 329° |
| 2026-04-17 12:50 | 51.21761 | 8.12717 | 34495 ft | 460 kts | 329° |
| 2026-04-17 12:50 | 51.24513 | 8.10255 | 34822 ft | 459 kts | 329° |
| 2026-04-17 12:50 | 51.27291 | 8.07765 | 35126 ft | 458 kts | 329° |
| 2026-04-17 12:51 | 51.30108 | 8.05234 | 35453 ft | 458 kts | 329° |
| 2026-04-17 12:51 | 51.32844 | 8.02773 | 35743 ft | 457 kts | 328° |
| 2026-04-17 12:51 | 51.35612 | 8.00281 | 36003 ft | 457 kts | 328° |
| 2026-04-17 12:51 | 51.38374 | 7.97791 | 36203 ft | 455 kts | 328° |
| 2026-04-17 12:52 | 51.41005 | 7.95038 | 36216 ft | 449 kts | 320° |
| 2026-04-17 12:52 | 51.45500 | 7.88182 | 36205 ft | 446 kts | 314° |
| 2026-04-17 12:53 | 51.49873 | 7.81128 | 36204 ft | 445 kts | 314° |
| 2026-04-17 12:53 | 51.54243 | 7.74058 | 36207 ft | 446 kts | 314° |
| 2026-04-17 12:54 | 51.58611 | 7.66972 | 36210 ft | 446 kts | 314° |
| 2026-04-17 12:54 | 51.62970 | 7.59876 | 36208 ft | 446 kts | 314° |
| 2026-04-17 12:55 | 51.67324 | 7.52771 | 36206 ft | 445 kts | 314° |
| 2026-04-17 12:55 | 51.71669 | 7.45659 | 36198 ft | 445 kts | 313° |
| 2026-04-17 12:56 | 51.75966 | 7.38605 | 36191 ft | 445 kts | 313° |
| 2026-04-17 12:56 | 51.80302 | 7.31467 | 36190 ft | 445 kts | 313° |
| 2026-04-17 12:57 | 51.84638 | 7.24309 | 36200 ft | 446 kts | 313° |
| 2026-04-17 12:57 | 51.88962 | 7.17147 | 36196 ft | 445 kts | 313° |
| 2026-04-17 12:58 | 51.93288 | 7.09962 | 36198 ft | 446 kts | 313° |
| 2026-04-17 12:58 | 51.97619 | 7.02748 | 36200 ft | 447 kts | 313° |
| 2026-04-17 12:59 | 52.01947 | 6.95518 | 36201 ft | 446 kts | 313° |
| 2026-04-17 12:59 | 52.06265 | 6.88283 | 36200 ft | 446 kts | 313° |
| 2026-04-17 13:00 | 52.10552 | 6.81079 | 36199 ft | 447 kts | 312° |
| 2026-04-17 13:00 | 52.14955 | 6.73871 | 36204 ft | 446 kts | 314° |
| 2026-04-17 13:01 | 52.19401 | 6.66909 | 36206 ft | 447 kts | 314° |
| 2026-04-17 13:01 | 52.23880 | 6.59889 | 36204 ft | 447 kts | 314° |
| 2026-04-17 13:02 | 52.28357 | 6.52848 | 36202 ft | 447 kts | 314° |
| 2026-04-17 13:02 | 52.32826 | 6.45798 | 36206 ft | 447 kts | 314° |
| 2026-04-17 13:03 | 52.37301 | 6.38719 | 36204 ft | 448 kts | 313° |
| 2026-04-17 13:03 | 52.41774 | 6.31621 | 36202 ft | 447 kts | 313° |
| 2026-04-17 13:04 | 52.46240 | 6.24515 | 36201 ft | 448 kts | 313° |
| 2026-04-17 13:04 | 52.50705 | 6.17388 | 36198 ft | 448 kts | 313° |
| 2026-04-17 13:05 | 52.55168 | 6.10241 | 36204 ft | 448 kts | 313° |
| 2026-04-17 13:05 | 52.59627 | 6.03081 | 36205 ft | 448 kts | 313° |
| 2026-04-17 13:06 | 52.64092 | 5.95892 | 36199 ft | 449 kts | 313° |
| 2026-04-17 13:06 | 52.68548 | 5.88692 | 36203 ft | 449 kts | 313° |
| 2026-04-17 13:07 | 52.72998 | 5.81481 | 36199 ft | 448 kts | 313° |
| 2026-04-17 13:07 | 52.77442 | 5.74259 | 36196 ft | 448 kts | 313° |
| 2026-04-17 13:08 | 52.81877 | 5.67029 | 36201 ft | 448 kts | 312° |
| 2026-04-17 13:08 | 52.86307 | 5.59784 | 36200 ft | 448 kts | 312° |
| 2026-04-17 13:09 | 52.90738 | 5.52518 | 36206 ft | 449 kts | 312° |
| 2026-04-17 13:09 | 52.95143 | 5.45268 | 36218 ft | 449 kts | 312° |
| 2026-04-17 13:10 | 52.99577 | 5.37953 | 36215 ft | 450 kts | 311° |
| 2026-04-17 13:10 | 53.04009 | 5.30617 | 36209 ft | 450 kts | 311° |
| 2026-04-17 13:11 | 53.08438 | 5.23263 | 36208 ft | 450 kts | 311° |
| 2026-04-17 13:11 | 53.12859 | 5.15900 | 36202 ft | 450 kts | 311° |
| 2026-04-17 13:12 | 53.17280 | 5.08516 | 36190 ft | 450 kts | 311° |
| 2026-04-17 13:12 | 53.23923 | 4.97373 | 36190 ft | 451 kts | 311° |
| 2026-04-17 13:13 | 53.28341 | 4.89935 | 36189 ft | 451 kts | 310° |
| 2026-04-17 13:13 | 53.32748 | 4.82493 | 36187 ft | 450 kts | 310° |
| 2026-04-17 13:14 | 53.37157 | 4.75022 | 36194 ft | 451 kts | 310° |
| 2026-04-17 13:14 | 53.41570 | 4.67523 | 36219 ft | 452 kts | 310° |
| 2026-04-17 13:15 | 53.45977 | 4.60010 | 36223 ft | 451 kts | 310° |
| 2026-04-17 13:15 | 53.50372 | 4.52492 | 36215 ft | 451 kts | 310° |
| 2026-04-17 13:16 | 53.54757 | 4.44970 | 36211 ft | 451 kts | 310° |
| 2026-04-17 13:16 | 53.59144 | 4.37420 | 36214 ft | 452 kts | 310° |
| 2026-04-17 13:17 | 53.63535 | 4.29839 | 36209 ft | 452 kts | 310° |
| 2026-04-17 13:17 | 53.67919 | 4.22246 | 36202 ft | 451 kts | 310° |
| 2026-04-17 13:18 | 53.72288 | 4.14656 | 36202 ft | 451 kts | 310° |
| 2026-04-17 13:18 | 53.76671 | 4.07015 | 36203 ft | 453 kts | 309° |
| 2026-04-17 13:19 | 53.81052 | 3.99356 | 36198 ft | 453 kts | 309° |
| 2026-04-17 13:19 | 53.85887 | 3.92453 | 36201 ft | 463 kts | 324° |
| 2026-04-17 13:20 | 53.91507 | 3.87068 | 36192 ft | 464 kts | 325° |
| 2026-04-17 13:20 | 53.97105 | 3.81724 | 36187 ft | 465 kts | 325° |
| 2026-04-17 13:21 | 54.02773 | 3.76287 | 36185 ft | 465 kts | 325° |
| 2026-04-17 13:21 | 54.08370 | 3.70908 | 36183 ft | 465 kts | 325° |
| 2026-04-17 13:22 | 54.14024 | 3.65452 | 36181 ft | 469 kts | 324° |
| 2026-04-17 13:22 | 54.19706 | 3.59958 | 36192 ft | 469 kts | 324° |
| 2026-04-17 13:23 | 54.25375 | 3.54453 | 36173 ft | 468 kts | 324° |
| 2026-04-17 13:23 | 54.31043 | 3.48933 | 36172 ft | 469 kts | 324° |
| 2026-04-17 13:24 | 54.36714 | 3.43394 | 36177 ft | 470 kts | 324° |
| 2026-04-17 13:24 | 54.42389 | 3.37831 | 36172 ft | 470 kts | 324° |
| 2026-04-17 13:25 | 54.48066 | 3.32250 | 36161 ft | 470 kts | 324° |
| 2026-04-17 13:25 | 54.53737 | 3.26656 | 36150 ft | 470 kts | 324° |
| 2026-04-17 13:26 | 54.59400 | 3.21053 | 36158 ft | 471 kts | 324° |
| 2026-04-17 13:26 | 54.65103 | 3.15389 | 36154 ft | 473 kts | 323° |
| 2026-04-17 13:27 | 54.70799 | 3.09717 | 36148 ft | 473 kts | 323° |
| 2026-04-17 13:27 | 54.76515 | 3.04055 | 36154 ft | 475 kts | 325° |
| 2026-04-17 13:28 | 54.82325 | 2.98606 | 36140 ft | 475 kts | 325° |
| 2026-04-17 13:28 | 54.88145 | 2.93118 | 36141 ft | 476 kts | 325° |
| 2026-04-17 13:29 | 54.93961 | 2.87635 | 36140 ft | 475 kts | 325° |
| 2026-04-17 13:29 | 54.99766 | 2.82124 | 36123 ft | 476 kts | 325° |
| 2026-04-17 13:30 | 55.05585 | 2.76599 | 36121 ft | 476 kts | 325° |
| 2026-04-17 13:30 | 55.11412 | 2.71035 | 36126 ft | 480 kts | 324° |
| 2026-04-17 13:31 | 55.16283 | 2.66376 | 36129 ft | 480 kts | 324° |
| 2026-04-17 13:31 | 55.22134 | 2.60760 | 36117 ft | 479 kts | 324° |
| 2026-04-17 13:32 | 55.28952 | 2.54188 | 36114 ft | 482 kts | 324° |
| 2026-04-17 13:32 | 55.33877 | 2.49432 | 36114 ft | 482 kts | 324° |
| 2026-04-17 13:33 | 55.39739 | 2.43744 | 36109 ft | 481 kts | 324° |
| 2026-04-17 13:33 | 55.45345 | 2.37456 | 36098 ft | 477 kts | 318° |
| 2026-04-17 13:34 | 55.50770 | 2.30753 | 36119 ft | 477 kts | 318° |
| 2026-04-17 13:34 | 55.56202 | 2.24017 | 36100 ft | 477 kts | 318° |
| 2026-04-17 13:35 | 55.61609 | 2.17283 | 36080 ft | 480 kts | 318° |
| 2026-04-17 13:35 | 55.67106 | 2.10424 | 36076 ft | 480 kts | 318° |
| 2026-04-17 13:36 | 55.72525 | 2.03628 | 36079 ft | 481 kts | 317° |
| 2026-04-17 13:36 | 55.77989 | 1.96760 | 36088 ft | 482 kts | 317° |
| 2026-04-17 13:37 | 55.83464 | 1.89850 | 36078 ft | 482 kts | 317° |
| 2026-04-17 13:37 | 55.88929 | 1.82928 | 36070 ft | 482 kts | 317° |
| 2026-04-17 13:38 | 55.94389 | 1.75989 | 36063 ft | 482 kts | 317° |
| 2026-04-17 13:38 | 55.99841 | 1.69035 | 36092 ft | 482 kts | 317° |
| 2026-04-17 13:39 | 56.05224 | 1.62143 | 36057 ft | 486 kts | 317° |
| 2026-04-17 13:39 | 56.10718 | 1.55090 | 36048 ft | 486 kts | 317° |
| 2026-04-17 13:40 | 56.16212 | 1.48005 | 36051 ft | 487 kts | 317° |
| 2026-04-17 13:40 | 56.21710 | 1.40894 | 36049 ft | 487 kts | 317° |
| 2026-04-17 13:41 | 56.27101 | 1.33893 | 36041 ft | 486 kts | 317° |
| 2026-04-17 13:41 | 56.32587 | 1.26745 | 36036 ft | 487 kts | 317° |
| 2026-04-17 13:42 | 56.38069 | 1.19577 | 36036 ft | 487 kts | 317° |
| 2026-04-17 13:42 | 56.43551 | 1.12379 | 36009 ft | 490 kts | 316° |
| 2026-04-17 13:43 | 56.49078 | 1.05099 | 36023 ft | 491 kts | 316° |
| 2026-04-17 13:43 | 56.54595 | 0.97806 | 36019 ft | 491 kts | 316° |
| 2026-04-17 13:44 | 56.60117 | 0.90474 | 36012 ft | 492 kts | 316° |
| 2026-04-17 13:44 | 56.65499 | 0.83309 | 36009 ft | 491 kts | 316° |
| 2026-04-17 13:45 | 56.71002 | 0.75949 | 36007 ft | 491 kts | 316° |
| 2026-04-17 13:45 | 56.76501 | 0.68572 | 35992 ft | 491 kts | 316° |
| 2026-04-17 13:46 | 56.81992 | 0.61175 | 35994 ft | 491 kts | 316° |
| 2026-04-17 13:46 | 56.87507 | 0.53716 | 35994 ft | 496 kts | 316° |
| 2026-04-17 13:47 | 56.93039 | 0.46217 | 35981 ft | 495 kts | 316° |
| 2026-04-17 13:47 | 56.98572 | 0.38676 | 35982 ft | 495 kts | 316° |
| 2026-04-17 13:48 | 57.04098 | 0.31123 | 35985 ft | 496 kts | 316° |
| 2026-04-17 13:48 | 57.09626 | 0.23533 | 35973 ft | 496 kts | 316° |
| 2026-04-17 13:49 | 57.15161 | 0.15907 | 35963 ft | 497 kts | 316° |
| 2026-04-17 13:49 | 57.20696 | 0.08254 | 35963 ft | 497 kts | 316° |
| 2026-04-17 13:50 | 57.26224 | 0.00578 | 35962 ft | 497 kts | 316° |
| 2026-04-17 13:50 | 57.31785 | -0.07177 | 35954 ft | 503 kts | 316° |
| 2026-04-17 13:51 | 57.37359 | -0.14968 | 35955 ft | 502 kts | 316° |
| 2026-04-17 13:51 | 57.42941 | -0.22818 | 35951 ft | 505 kts | 316° |
| 2026-04-17 13:52 | 57.48527 | -0.30686 | 35943 ft | 504 kts | 316° |
| 2026-04-17 13:52 | 57.54064 | -0.38531 | 35942 ft | 504 kts | 316° |
| 2026-04-17 13:53 | 57.59639 | -0.46453 | 35945 ft | 505 kts | 316° |
| 2026-04-17 13:53 | 57.65221 | -0.54419 | 35951 ft | 505 kts | 316° |
| 2026-04-17 13:54 | 57.73598 | -0.66429 | 35929 ft | 506 kts | 316° |
| 2026-04-17 13:55 | 57.81959 | -0.78494 | 35919 ft | 505 kts | 316° |
| 2026-04-17 13:56 | 57.93080 | -0.94652 | 35923 ft | 505 kts | 316° |
| 2026-04-17 13:56 | 57.98616 | -1.02740 | 35902 ft | 503 kts | 316° |
| 2026-04-17 13:57 | 58.04145 | -1.10857 | 35898 ft | 504 kts | 316° |
| 2026-04-17 13:58 | 58.12441 | -1.23093 | 35930 ft | 505 kts | 316° |
| 2026-04-17 13:58 | 58.20688 | -1.35329 | 35885 ft | 507 kts | 316° |
| 2026-04-17 13:59 | 58.28977 | -1.47706 | 35878 ft | 505 kts | 316° |
| 2026-04-17 14:00 | 58.34497 | -1.55988 | 35864 ft | 505 kts | 316° |
| 2026-04-17 14:00 | 58.40014 | -1.64302 | 35863 ft | 506 kts | 316° |
| 2026-04-17 14:01 | 58.45536 | -1.72656 | 35865 ft | 506 kts | 316° |
| 2026-04-17 14:01 | 58.51046 | -1.81026 | 35848 ft | 505 kts | 316° |
| 2026-04-17 14:02 | 58.56539 | -1.89407 | 35856 ft | 507 kts | 316° |
| 2026-04-17 14:02 | 58.62025 | -1.97811 | 35842 ft | 508 kts | 316° |
| 2026-04-17 14:03 | 58.67542 | -2.06296 | 35830 ft | 508 kts | 316° |
| 2026-04-17 14:03 | 58.73053 | -2.14809 | 35828 ft | 508 kts | 316° |
| 2026-04-17 14:04 | 58.78558 | -2.23348 | 35824 ft | 508 kts | 316° |
| 2026-04-17 14:04 | 58.84060 | -2.31918 | 35810 ft | 508 kts | 316° |
| 2026-04-17 14:05 | 58.89554 | -2.40512 | 35810 ft | 508 kts | 316° |
| 2026-04-17 14:05 | 58.95041 | -2.49132 | 35811 ft | 508 kts | 316° |
| 2026-04-17 14:06 | 59.00531 | -2.57794 | 35807 ft | 513 kts | 316° |
| 2026-04-17 14:06 | 59.06047 | -2.66528 | 35790 ft | 510 kts | 316° |
| 2026-04-17 14:07 | 59.11548 | -2.75284 | 35790 ft | 511 kts | 316° |
| 2026-04-17 14:07 | 59.17048 | -2.84070 | 35777 ft | 511 kts | 316° |
| 2026-04-17 14:08 | 59.22540 | -2.92883 | 35775 ft | 511 kts | 316° |
| 2026-04-17 14:08 | 59.28026 | -3.01726 | 35778 ft | 512 kts | 316° |
| 2026-04-17 14:09 | 59.33508 | -3.10597 | 35764 ft | 510 kts | 316° |
| 2026-04-17 14:09 | 59.38968 | -3.19474 | 35763 ft | 510 kts | 316° |
| 2026-04-17 14:10 | 59.44447 | -3.28423 | 35753 ft | 515 kts | 316° |
| 2026-04-17 14:10 | 59.49945 | -3.37434 | 35739 ft | 514 kts | 316° |
| 2026-04-17 14:11 | 59.55436 | -3.46481 | 35745 ft | 514 kts | 316° |
| 2026-04-17 14:11 | 59.60921 | -3.55554 | 35757 ft | 515 kts | 315° |
| 2026-04-17 14:12 | 59.66299 | -3.64489 | 35755 ft | 516 kts | 315° |
| 2026-04-17 14:12 | 59.71777 | -3.73630 | 35735 ft | 515 kts | 315° |
| 2026-04-17 14:13 | 59.79969 | -3.87379 | 35742 ft | 514 kts | 315° |
| 2026-04-17 14:13 | 59.85423 | -3.96584 | 35754 ft | 516 kts | 315° |
| 2026-04-17 14:14 | 59.90897 | -4.05860 | 35739 ft | 516 kts | 315° |
| 2026-04-17 14:14 | 59.96358 | -4.15159 | 35740 ft | 516 kts | 315° |
| 2026-04-17 14:15 | 60.01810 | -4.24484 | 35730 ft | 516 kts | 315° |
| 2026-04-17 14:15 | 60.07253 | -4.33836 | 35729 ft | 516 kts | 315° |
| 2026-04-17 14:16 | 60.12687 | -4.43214 | 35726 ft | 516 kts | 315° |
| 2026-04-17 14:16 | 60.18112 | -4.52619 | 35725 ft | 515 kts | 315° |
| 2026-04-17 14:17 | 60.23534 | -4.62062 | 35718 ft | 516 kts | 315° |
| 2026-04-17 14:17 | 60.28952 | -4.71542 | 35708 ft | 517 kts | 315° |
| 2026-04-17 14:18 | 60.34376 | -4.81072 | 35709 ft | 517 kts | 315° |
| 2026-04-17 14:18 | 60.39789 | -4.90630 | 35709 ft | 516 kts | 315° |
| 2026-04-17 14:19 | 60.44278 | -4.98588 | 35708 ft | 516 kts | 315° |
| 2026-04-17 14:19 | 60.50552 | -5.09765 | 35709 ft | 517 kts | 315° |
| 2026-04-17 14:20 | 60.55945 | -5.19417 | 35698 ft | 517 kts | 315° |
| 2026-04-17 14:20 | 60.61332 | -5.29105 | 35702 ft | 517 kts | 315° |
| 2026-04-17 14:21 | 60.65835 | -5.37239 | 35697 ft | 517 kts | 315° |
| 2026-04-17 14:21 | 60.71202 | -5.46973 | 35711 ft | 517 kts | 315° |
| 2026-04-17 14:22 | 60.76550 | -5.56719 | 35686 ft | 518 kts | 315° |
| 2026-04-17 14:22 | 60.81922 | -5.66552 | 35688 ft | 518 kts | 315° |
| 2026-04-17 14:23 | 60.87290 | -5.76427 | 35693 ft | 519 kts | 315° |
| 2026-04-17 14:23 | 60.92653 | -5.86338 | 35680 ft | 518 kts | 315° |
| 2026-04-17 14:24 | 60.97999 | -5.96287 | 35682 ft | 517 kts | 312° |
| 2026-04-17 14:24 | 61.00348 | -6.01817 | 35685 ft | 512 kts | 301° |
| 2026-04-17 14:24 | 61.02206 | -6.08042 | 35679 ft | 509 kts | 296° |
| 2026-04-17 14:25 | 61.05645 | -6.20760 | 35673 ft | 507 kts | 295° |
| 2026-04-17 14:25 | 61.09094 | -6.33531 | 35673 ft | 510 kts | 296° |
| 2026-04-17 14:26 | 61.12533 | -6.46335 | 35662 ft | 509 kts | 295° |
| 2026-04-17 14:26 | 61.15951 | -6.59155 | 35662 ft | 509 kts | 295° |
| 2026-04-17 14:27 | 61.19367 | -6.72021 | 35659 ft | 510 kts | 295° |
| 2026-04-17 14:27 | 61.22768 | -6.84922 | 35660 ft | 510 kts | 295° |
| 2026-04-17 14:28 | 61.26138 | -6.97762 | 35656 ft | 509 kts | 295° |
| 2026-04-17 14:28 | 61.29519 | -7.10736 | 35656 ft | 511 kts | 295° |
| 2026-04-17 14:29 | 61.32897 | -7.23758 | 35651 ft | 511 kts | 295° |
| 2026-04-17 14:29 | 61.36262 | -7.36816 | 35653 ft | 511 kts | 295° |
| 2026-04-17 14:30 | 61.39615 | -7.49900 | 35657 ft | 512 kts | 295° |
| 2026-04-17 14:30 | 61.42955 | -7.63015 | 35655 ft | 512 kts | 294° |
| 2026-04-17 14:31 | 61.46284 | -7.76162 | 35648 ft | 512 kts | 294° |
| 2026-04-17 14:31 | 61.49599 | -7.89331 | 35654 ft | 512 kts | 294° |
| 2026-04-17 14:32 | 61.52902 | -8.02531 | 35624 ft | 512 kts | 294° |
| 2026-04-17 14:32 | 61.56193 | -8.15760 | 35626 ft | 511 kts | 294° |
| 2026-04-17 14:33 | 61.59467 | -8.29007 | 35617 ft | 511 kts | 294° |
| 2026-04-17 14:33 | 61.62726 | -8.42265 | 35610 ft | 511 kts | 294° |
| 2026-04-17 14:34 | 61.65969 | -8.55546 | 35613 ft | 511 kts | 294° |
| 2026-04-17 14:34 | 61.69204 | -8.68868 | 35601 ft | 510 kts | 294° |
| 2026-04-17 14:35 | 61.72385 | -8.82050 | 35597 ft | 510 kts | 293° |
| 2026-04-17 14:35 | 61.75588 | -8.95408 | 35593 ft | 511 kts | 293° |
| 2026-04-17 14:36 | 61.78782 | -9.08806 | 35596 ft | 511 kts | 293° |
| 2026-04-17 14:36 | 61.81967 | -9.22248 | 35584 ft | 511 kts | 293° |
| 2026-04-17 14:37 | 61.85140 | -9.35727 | 35592 ft | 512 kts | 293° |
| 2026-04-17 14:37 | 61.88301 | -9.49237 | 35584 ft | 511 kts | 293° |
| 2026-04-17 14:38 | 61.91444 | -9.62755 | 35588 ft | 510 kts | 293° |
| 2026-04-17 14:38 | 61.94568 | -9.76271 | 35584 ft | 510 kts | 292° |
| 2026-04-17 14:39 | 61.97679 | -9.89821 | 35576 ft | 510 kts | 292° |
| 2026-04-17 14:39 | 62.00846 | -10.03319 | 35586 ft | 511 kts | 295° |
| 2026-04-17 14:40 | 62.04182 | -10.16689 | 35563 ft | 512 kts | 295° |
| 2026-04-17 14:40 | 62.07515 | -10.30072 | 35567 ft | 511 kts | 295° |
| 2026-04-17 14:41 | 62.10832 | -10.43476 | 35566 ft | 510 kts | 295° |
| 2026-04-17 14:41 | 62.14130 | -10.56904 | 35562 ft | 509 kts | 295° |
| 2026-04-17 14:42 | 62.17415 | -10.70340 | 35560 ft | 510 kts | 294° |
| 2026-04-17 14:42 | 62.20686 | -10.83816 | 35556 ft | 510 kts | 294° |
| 2026-04-17 14:43 | 62.23950 | -10.97336 | 35573 ft | 511 kts | 294° |
| 2026-04-17 14:43 | 62.27194 | -11.10863 | 35550 ft | 509 kts | 294° |
| 2026-04-17 14:44 | 62.30425 | -11.24418 | 35539 ft | 510 kts | 294° |
| 2026-04-17 14:44 | 62.33624 | -11.37923 | 35544 ft | 510 kts | 294° |
| 2026-04-17 14:45 | 62.36852 | -11.51636 | 35551 ft | 509 kts | 294° |
| 2026-04-17 14:45 | 62.40008 | -11.65129 | 35549 ft | 508 kts | 294° |
| 2026-04-17 14:46 | 62.43173 | -11.78746 | 35551 ft | 508 kts | 294° |
| 2026-04-17 14:46 | 62.46324 | -11.92381 | 35561 ft | 507 kts | 294° |
| 2026-04-17 14:47 | 62.49458 | -12.06039 | 35568 ft | 507 kts | 294° |
| 2026-04-17 14:47 | 62.52581 | -12.19729 | 35568 ft | 507 kts | 293° |
| 2026-04-17 14:48 | 62.55692 | -12.33460 | 35570 ft | 507 kts | 293° |
| 2026-04-17 14:48 | 62.58789 | -12.47211 | 35588 ft | 507 kts | 293° |
| 2026-04-17 14:49 | 62.61869 | -12.60977 | 35587 ft | 506 kts | 293° |
| 2026-04-17 14:49 | 62.64929 | -12.74748 | 35585 ft | 506 kts | 293° |
| 2026-04-17 14:50 | 62.67978 | -12.88552 | 35598 ft | 506 kts | 293° |
| 2026-04-17 14:50 | 62.71013 | -13.02386 | 35598 ft | 506 kts | 292° |
| 2026-04-17 14:51 | 62.74035 | -13.16251 | 35600 ft | 507 kts | 292° |
| 2026-04-17 14:51 | 62.77047 | -13.30158 | 35605 ft | 507 kts | 292° |
| 2026-04-17 14:52 | 62.80045 | -13.44094 | 35604 ft | 507 kts | 292° |
| 2026-04-17 14:52 | 62.83018 | -13.58007 | 35599 ft | 504 kts | 292° |
| 2026-04-17 14:53 | 62.85971 | -13.71924 | 35605 ft | 505 kts | 292° |
| 2026-04-17 14:53 | 62.88896 | -13.85793 | 35607 ft | 505 kts | 292° |
| 2026-04-17 14:54 | 62.91827 | -13.99787 | 35611 ft | 505 kts | 292° |
| 2026-04-17 14:54 | 62.94747 | -14.13820 | 35618 ft | 505 kts | 291° |
| 2026-04-17 14:55 | 62.97654 | -14.27889 | 35622 ft | 505 kts | 291° |
| 2026-04-17 14:55 | 63.00546 | -14.41980 | 35634 ft | 506 kts | 291° |
| 2026-04-17 14:56 | 63.03418 | -14.56066 | 35619 ft | 502 kts | 291° |
| 2026-04-17 14:56 | 63.06270 | -14.70156 | 35622 ft | 503 kts | 291° |
| 2026-04-17 14:57 | 63.09108 | -14.84267 | 35625 ft | 503 kts | 291° |
| 2026-04-17 14:57 | 63.11932 | -14.98414 | 35631 ft | 503 kts | 291° |
| 2026-04-17 14:58 | 63.14742 | -15.12582 | 35630 ft | 503 kts | 291° |
| 2026-04-17 14:58 | 63.17538 | -15.26782 | 35631 ft | 503 kts | 291° |
| 2026-04-17 14:59 | 63.20318 | -15.40998 | 35637 ft | 503 kts | 290° |
| 2026-04-17 14:59 | 63.23079 | -15.55217 | 35634 ft | 501 kts | 290° |
| 2026-04-17 15:00 | 63.25824 | -15.69459 | 35637 ft | 502 kts | 290° |
| 2026-04-17 15:00 | 63.28554 | -15.83718 | 35640 ft | 502 kts | 290° |
| 2026-04-17 15:01 | 63.31253 | -15.97916 | 35642 ft | 502 kts | 290° |
| 2026-04-17 15:01 | 63.33954 | -16.12230 | 35642 ft | 502 kts | 290° |
| 2026-04-17 15:02 | 63.36640 | -16.26565 | 35643 ft | 501 kts | 290° |
| 2026-04-17 15:02 | 63.39312 | -16.40926 | 35649 ft | 501 kts | 289° |
| 2026-04-17 15:03 | 63.41970 | -16.55322 | 35639 ft | 501 kts | 289° |
| 2026-04-17 15:03 | 63.44607 | -16.69707 | 35642 ft | 501 kts | 289° |
| 2026-04-17 15:04 | 63.47233 | -16.84136 | 35638 ft | 501 kts | 289° |
| 2026-04-17 15:04 | 63.49844 | -16.98590 | 35641 ft | 501 kts | 289° |
| 2026-04-17 15:05 | 63.52442 | -17.13082 | 35664 ft | 501 kts | 289° |
| 2026-04-17 15:05 | 63.55028 | -17.27608 | 35651 ft | 502 kts | 289° |
| 2026-04-17 15:06 | 63.57598 | -17.42156 | 35658 ft | 501 kts | 289° |
| 2026-04-17 15:06 | 63.60129 | -17.56596 | 35655 ft | 500 kts | 288° |
| 2026-04-17 15:07 | 63.62666 | -17.71173 | 35656 ft | 501 kts | 288° |
| 2026-04-17 15:07 | 63.65193 | -17.85808 | 35659 ft | 502 kts | 288° |
| 2026-04-17 15:08 | 63.67707 | -18.00484 | 35661 ft | 502 kts | 288° |
| 2026-04-17 15:08 | 63.69783 | -18.12681 | 35658 ft | 502 kts | 288° |
| 2026-04-17 15:09 | 63.72268 | -18.27394 | 35657 ft | 502 kts | 288° |
| 2026-04-17 15:09 | 63.74734 | -18.42106 | 35657 ft | 501 kts | 288° |
| 2026-04-17 15:10 | 63.77184 | -18.56837 | 35659 ft | 501 kts | 288° |
| 2026-04-17 15:11 | 63.80834 | -18.79001 | 35677 ft | 500 kts | 287° |
| 2026-04-17 15:11 | 63.83246 | -18.93798 | 35677 ft | 501 kts | 287° |
| 2026-04-17 15:12 | 63.85647 | -19.08637 | 35683 ft | 502 kts | 287° |
| 2026-04-17 15:12 | 63.88035 | -19.23521 | 35684 ft | 501 kts | 287° |
| 2026-04-17 15:13 | 63.90404 | -19.38406 | 35687 ft | 502 kts | 287° |
| 2026-04-17 15:13 | 63.92760 | -19.53327 | 35678 ft | 502 kts | 287° |
| 2026-04-17 15:14 | 63.95099 | -19.68274 | 35685 ft | 502 kts | 286° |
| 2026-04-17 15:14 | 63.97423 | -19.83238 | 35668 ft | 501 kts | 286° |
| 2026-04-17 15:15 | 63.99730 | -19.98222 | 35694 ft | 501 kts | 286° |
| 2026-04-17 15:15 | 64.01818 | -20.13271 | 35676 ft | 502 kts | 284° |
| 2026-04-17 15:16 | 64.03929 | -20.28445 | 35671 ft | 502 kts | 284° |
| 2026-04-17 15:16 | 64.05975 | -20.43675 | 35668 ft | 502 kts | 284° |
| 2026-04-17 15:17 | 64.08036 | -20.58900 | 35671 ft | 501 kts | 283° |
| 2026-04-17 15:17 | 64.10060 | -20.74150 | 35671 ft | 501 kts | 283° |
| 2026-04-17 15:18 | 64.12080 | -20.89413 | 35681 ft | 501 kts | 283° |
| 2026-04-17 15:18 | 64.14078 | -21.04709 | 35672 ft | 501 kts | 283° |
| 2026-04-17 15:19 | 64.16064 | -21.20023 | 35669 ft | 501 kts | 283° |
| 2026-04-17 15:19 | 64.18030 | -21.35357 | 35675 ft | 502 kts | 283° |
| 2026-04-17 15:20 | 64.19986 | -21.50737 | 35680 ft | 503 kts | 283° |
| 2026-04-17 15:20 | 64.21926 | -21.66153 | 35676 ft | 502 kts | 283° |
| 2026-04-17 15:21 | 64.23849 | -21.81585 | 35675 ft | 502 kts | 282° |
| 2026-04-17 15:21 | 64.25756 | -21.97033 | 35666 ft | 503 kts | 282° |
| 2026-04-17 15:22 | 64.27651 | -22.12542 | 35671 ft | 503 kts | 282° |
| 2026-04-17 15:22 | 64.29516 | -22.27959 | 35674 ft | 503 kts | 282° |
| 2026-04-17 15:23 | 64.31375 | -22.43484 | 35677 ft | 502 kts | 282° |
| 2026-04-17 15:23 | 64.33227 | -22.59115 | 35679 ft | 502 kts | 282° |
| 2026-04-17 15:24 | 64.35038 | -22.74553 | 35678 ft | 502 kts | 282° |
| 2026-04-17 15:24 | 64.36846 | -22.90127 | 35704 ft | 503 kts | 281° |
| 2026-04-17 15:25 | 64.38644 | -23.05779 | 35681 ft | 504 kts | 281° |
| 2026-04-17 15:25 | 64.40426 | -23.21450 | 35685 ft | 504 kts | 281° |
| 2026-04-17 15:26 | 64.42191 | -23.37147 | 35674 ft | 504 kts | 281° |
| 2026-04-17 15:26 | 64.43938 | -23.52852 | 35677 ft | 503 kts | 281° |
| 2026-04-17 15:27 | 64.45666 | -23.68553 | 35676 ft | 503 kts | 281° |
| 2026-04-17 15:27 | 64.47376 | -23.84272 | 35675 ft | 504 kts | 281° |
| 2026-04-17 15:28 | 64.49077 | -24.00080 | 35680 ft | 506 kts | 280° |
| 2026-04-17 15:28 | 64.50764 | -24.15919 | 35675 ft | 505 kts | 280° |
| 2026-04-17 15:29 | 64.52418 | -24.31646 | 35671 ft | 505 kts | 280° |
| 2026-04-17 15:29 | 64.54068 | -24.47511 | 35685 ft | 505 kts | 280° |
| 2026-04-17 15:30 | 64.55704 | -24.63413 | 35665 ft | 505 kts | 279° |
| 2026-04-17 15:30 | 64.57319 | -24.79302 | 35658 ft | 505 kts | 279° |
| 2026-04-17 15:31 | 64.58919 | -24.95242 | 35667 ft | 507 kts | 279° |
| 2026-04-17 15:31 | 64.60510 | -25.11268 | 35671 ft | 508 kts | 279° |
| 2026-04-17 15:32 | 64.62083 | -25.27313 | 35663 ft | 508 kts | 279° |
| 2026-04-17 15:32 | 64.63638 | -25.43379 | 35665 ft | 508 kts | 279° |
| 2026-04-17 15:33 | 64.65177 | -25.59468 | 35665 ft | 508 kts | 278° |
| 2026-04-17 15:33 | 64.66697 | -25.75561 | 35653 ft | 508 kts | 278° |
| 2026-04-17 15:34 | 64.68202 | -25.91696 | 35656 ft | 508 kts | 278° |
| 2026-04-17 15:34 | 64.69688 | -26.07842 | 35657 ft | 508 kts | 278° |
| 2026-04-17 15:35 | 64.71158 | -26.24015 | 35649 ft | 508 kts | 278° |
| 2026-04-17 15:35 | 64.72609 | -26.40192 | 35650 ft | 508 kts | 278° |
| 2026-04-17 15:36 | 64.74041 | -26.56374 | 35649 ft | 508 kts | 278° |
| 2026-04-17 15:36 | 64.75456 | -26.72583 | 35644 ft | 508 kts | 278° |
| 2026-04-17 15:37 | 64.76853 | -26.88798 | 35646 ft | 508 kts | 277° |
| 2026-04-17 15:37 | 64.78235 | -27.05079 | 35641 ft | 510 kts | 277° |
| 2026-04-17 15:38 | 64.79602 | -27.21379 | 35634 ft | 509 kts | 277° |
| 2026-04-17 15:38 | 64.80948 | -27.37684 | 35635 ft | 509 kts | 277° |
| 2026-04-17 15:39 | 64.82268 | -27.53895 | 35634 ft | 509 kts | 277° |
| 2026-04-17 15:39 | 64.83579 | -27.70229 | 35622 ft | 509 kts | 277° |
| 2026-04-17 15:40 | 64.84871 | -27.86570 | 35625 ft | 508 kts | 277° |
| 2026-04-17 15:40 | 64.86145 | -28.02939 | 35624 ft | 510 kts | 276° |
| 2026-04-17 15:41 | 64.87404 | -28.19335 | 35622 ft | 509 kts | 276° |
| 2026-04-17 15:41 | 64.88645 | -28.35763 | 35620 ft | 510 kts | 276° |
| 2026-04-17 15:42 | 64.89869 | -28.52215 | 35621 ft | 510 kts | 276° |
| 2026-04-17 15:42 | 64.91075 | -28.68691 | 35616 ft | 510 kts | 276° |
| 2026-04-17 15:43 | 64.92264 | -28.85192 | 35619 ft | 511 kts | 276° |
| 2026-04-17 15:43 | 64.93434 | -29.01712 | 35629 ft | 512 kts | 276° |
| 2026-04-17 15:44 | 64.94589 | -29.18275 | 35605 ft | 511 kts | 275° |
| 2026-04-17 15:44 | 64.95723 | -29.34826 | 35599 ft | 511 kts | 275° |
| 2026-04-17 15:45 | 64.96838 | -29.51372 | 35593 ft | 510 kts | 275° |
| 2026-04-17 15:45 | 64.97934 | -29.67924 | 35593 ft | 510 kts | 275° |
| 2026-04-17 15:46 | 64.99011 | -29.84492 | 35584 ft | 510 kts | 275° |
| 2026-04-17 15:46 | 65.00036 | -30.00969 | 35586 ft | 508 kts | 271° |
| 2026-04-17 15:47 | 65.00582 | -30.17649 | 35596 ft | 508 kts | 270° |
| 2026-04-17 15:47 | 65.01113 | -30.34325 | 35590 ft | 509 kts | 270° |
| 2026-04-17 15:48 | 65.01624 | -30.51011 | 35591 ft | 509 kts | 270° |
| 2026-04-17 15:48 | 65.02116 | -30.67715 | 35590 ft | 509 kts | 270° |
| 2026-04-17 15:49 | 65.02591 | -30.84424 | 35575 ft | 509 kts | 270° |
| 2026-04-17 15:49 | 65.03046 | -31.01153 | 35582 ft | 509 kts | 270° |
| 2026-04-17 15:50 | 65.03484 | -31.17899 | 35573 ft | 509 kts | 270° |
| 2026-04-17 15:50 | 65.03902 | -31.34635 | 35572 ft | 510 kts | 270° |
| 2026-04-17 15:51 | 65.04303 | -31.51414 | 35571 ft | 511 kts | 269° |
| 2026-04-17 15:51 | 65.04685 | -31.68216 | 35573 ft | 511 kts | 269° |
| 2026-04-17 15:52 | 65.05047 | -31.84996 | 35561 ft | 510 kts | 269° |
| 2026-04-17 15:52 | 65.05390 | -32.01737 | 35558 ft | 509 kts | 269° |
| 2026-04-17 15:53 | 65.05715 | -32.18502 | 35560 ft | 509 kts | 269° |
| 2026-04-17 15:53 | 65.06021 | -32.35297 | 35546 ft | 512 kts | 269° |
| 2026-04-17 15:54 | 65.06310 | -32.52154 | 35551 ft | 512 kts | 269° |
| 2026-04-17 15:54 | 65.06577 | -32.68886 | 35537 ft | 511 kts | 268° |
| 2026-04-17 15:55 | 65.06827 | -32.85703 | 35546 ft | 510 kts | 268° |
| 2026-04-17 15:55 | 65.07058 | -33.02511 | 35542 ft | 510 kts | 268° |
| 2026-04-17 15:56 | 65.07271 | -33.19351 | 35532 ft | 511 kts | 268° |
| 2026-04-17 15:56 | 65.07464 | -33.36177 | 35531 ft | 511 kts | 268° |
| 2026-04-17 15:57 | 65.07638 | -33.52994 | 35523 ft | 510 kts | 268° |
| 2026-04-17 15:57 | 65.07794 | -33.69807 | 35534 ft | 510 kts | 268° |
| 2026-04-17 15:58 | 65.07931 | -33.86707 | 35514 ft | 513 kts | 268° |
| 2026-04-17 15:58 | 65.08050 | -34.03615 | 35546 ft | 513 kts | 267° |
| 2026-04-17 15:59 | 65.08133 | -34.17678 | 35508 ft | 512 kts | 267° |
| 2026-04-17 15:59 | 65.08216 | -34.34561 | 35493 ft | 512 kts | 267° |
| 2026-04-17 16:00 | 65.08280 | -34.51437 | 35498 ft | 512 kts | 267° |
| 2026-04-17 16:00 | 65.08326 | -34.68321 | 35485 ft | 512 kts | 267° |
| 2026-04-17 16:01 | 65.08352 | -34.85207 | 35491 ft | 512 kts | 266° |
| 2026-04-17 16:01 | 65.08359 | -35.02086 | 35490 ft | 512 kts | 266° |
| 2026-04-17 16:02 | 65.08347 | -35.18998 | 35489 ft | 514 kts | 266° |
| 2026-04-17 16:02 | 65.08316 | -35.35971 | 35492 ft | 515 kts | 266° |
| 2026-04-17 16:03 | 65.08266 | -35.52928 | 35495 ft | 514 kts | 266° |
| 2026-04-17 16:03 | 65.08196 | -35.69881 | 35496 ft | 514 kts | 266° |
| 2026-04-17 16:04 | 65.08108 | -35.86821 | 35483 ft | 514 kts | 266° |
| 2026-04-17 16:04 | 65.08001 | -36.03632 | 35490 ft | 513 kts | 265° |
| 2026-04-17 16:05 | 65.07874 | -36.20555 | 35486 ft | 513 kts | 265° |
| 2026-04-17 16:05 | 65.07729 | -36.37475 | 35475 ft | 513 kts | 265° |
| 2026-04-17 16:06 | 65.07564 | -36.54381 | 35476 ft | 513 kts | 265° |
| 2026-04-17 16:06 | 65.07380 | -36.71320 | 35472 ft | 514 kts | 265° |
| 2026-04-17 16:07 | 65.07177 | -36.88256 | 35472 ft | 514 kts | 265° |
| 2026-04-17 16:07 | 65.06954 | -37.05192 | 35489 ft | 514 kts | 265° |
| 2026-04-17 16:08 | 65.06713 | -37.22133 | 35462 ft | 514 kts | 265° |
| 2026-04-17 16:08 | 65.06452 | -37.39059 | 35462 ft | 514 kts | 264° |
| 2026-04-17 16:09 | 65.06172 | -37.56000 | 35453 ft | 515 kts | 264° |
| 2026-04-17 16:09 | 65.05873 | -37.72961 | 35461 ft | 516 kts | 264° |
| 2026-04-17 16:10 | 65.05554 | -37.89930 | 35447 ft | 515 kts | 264° |
| 2026-04-17 16:10 | 65.05216 | -38.06865 | 35472 ft | 516 kts | 264° |
| 2026-04-17 16:11 | 65.04861 | -38.23719 | 35455 ft | 516 kts | 264° |
| 2026-04-17 16:11 | 65.04484 | -38.40685 | 35449 ft | 516 kts | 264° |
| 2026-04-17 16:12 | 65.04088 | -38.57644 | 35449 ft | 516 kts | 264° |
| 2026-04-17 16:12 | 65.03673 | -38.74606 | 35442 ft | 516 kts | 263° |
| 2026-04-17 16:13 | 65.03239 | -38.91553 | 35451 ft | 516 kts | 263° |
| 2026-04-17 16:13 | 65.02785 | -39.08512 | 35449 ft | 517 kts | 263° |
| 2026-04-17 16:14 | 65.02070 | -39.33876 | 35432 ft | 515 kts | 263° |
| 2026-04-17 16:14 | 65.01569 | -39.50781 | 35440 ft | 516 kts | 263° |
| 2026-04-17 16:15 | 65.01049 | -39.67710 | 35444 ft | 516 kts | 263° |
| 2026-04-17 16:15 | 65.00509 | -39.84648 | 35437 ft | 516 kts | 263° |
| 2026-04-17 16:16 | 64.99909 | -40.01552 | 35465 ft | 514 kts | 258° |
| 2026-04-17 16:16 | 64.98829 | -40.18277 | 35451 ft | 514 kts | 258° |
| 2026-04-17 16:17 | 64.97744 | -40.34957 | 35443 ft | 514 kts | 258° |
| 2026-04-17 16:17 | 64.96637 | -40.51619 | 35443 ft | 513 kts | 258° |
| 2026-04-17 16:18 | 64.95512 | -40.68258 | 35454 ft | 513 kts | 258° |
| 2026-04-17 16:18 | 64.94377 | -40.84775 | 35454 ft | 513 kts | 258° |
| 2026-04-17 16:19 | 64.93215 | -41.01386 | 35460 ft | 515 kts | 257° |
| 2026-04-17 16:19 | 64.92032 | -41.18037 | 35455 ft | 515 kts | 257° |
| 2026-04-17 16:20 | 64.90829 | -41.34676 | 35474 ft | 515 kts | 257° |
| 2026-04-17 16:20 | 64.89609 | -41.51288 | 35474 ft | 515 kts | 257° |
| 2026-04-17 16:21 | 64.88370 | -41.67891 | 35475 ft | 515 kts | 257° |
| 2026-04-17 16:21 | 64.87112 | -41.84473 | 35465 ft | 515 kts | 257° |
| 2026-04-17 16:22 | 64.85835 | -42.01053 | 35479 ft | 515 kts | 257° |
| 2026-04-17 16:22 | 64.84542 | -42.17601 | 35473 ft | 515 kts | 256° |
| 2026-04-17 16:23 | 64.83230 | -42.34132 | 35468 ft | 515 kts | 256° |
| 2026-04-17 16:23 | 64.81898 | -42.50656 | 35481 ft | 515 kts | 256° |
| 2026-04-17 16:24 | 64.80537 | -42.67291 | 35476 ft | 517 kts | 256° |
| 2026-04-17 16:24 | 64.79161 | -42.83892 | 35493 ft | 519 kts | 256° |
| 2026-04-17 16:25 | 64.77787 | -43.00233 | 35460 ft | 515 kts | 255° |
| 2026-04-17 16:25 | 64.76383 | -43.16661 | 35459 ft | 515 kts | 255° |
| 2026-04-17 16:26 | 64.74962 | -43.33092 | 35446 ft | 514 kts | 255° |
| 2026-04-17 16:26 | 64.73521 | -43.49498 | 35448 ft | 514 kts | 256° |
| 2026-04-17 16:27 | 64.72065 | -43.65879 | 35431 ft | 515 kts | 255° |
| 2026-04-17 16:27 | 64.70592 | -43.82241 | 35435 ft | 513 kts | 254° |
| 2026-04-17 16:28 | 64.69109 | -43.98467 | 35417 ft | 509 kts | 255° |
| 2026-04-17 16:28 | 64.67607 | -44.14681 | 35420 ft | 510 kts | 255° |
| 2026-04-17 16:29 | 64.66089 | -44.30885 | 35409 ft | 511 kts | 254° |
| 2026-04-17 16:29 | 64.64554 | -44.47062 | 35413 ft | 511 kts | 254° |
| 2026-04-17 16:30 | 64.63002 | -44.63219 | 35416 ft | 511 kts | 253° |
| 2026-04-17 16:30 | 64.61435 | -44.79306 | 35399 ft | 504 kts | 255° |
| 2026-04-17 16:31 | 64.59860 | -44.95278 | 35401 ft | 506 kts | 254° |
| 2026-04-17 16:31 | 64.58270 | -45.11233 | 35401 ft | 506 kts | 254° |
| 2026-04-17 16:32 | 64.56673 | -45.27060 | 35402 ft | 506 kts | 254° |
| 2026-04-17 16:32 | 64.55050 | -45.42956 | 35401 ft | 506 kts | 253° |
| 2026-04-17 16:33 | 64.53409 | -45.58839 | 35416 ft | 505 kts | 254° |
| 2026-04-17 16:33 | 64.51744 | -45.74773 | 35417 ft | 507 kts | 254° |
| 2026-04-17 16:34 | 64.50062 | -45.90681 | 35418 ft | 508 kts | 254° |
| 2026-04-17 16:34 | 64.48361 | -46.06595 | 35416 ft | 508 kts | 253° |
| 2026-04-17 16:35 | 64.46641 | -46.22496 | 35426 ft | 508 kts | 253° |
| 2026-04-17 16:35 | 64.44906 | -46.38365 | 35422 ft | 508 kts | 253° |
| 2026-04-17 16:36 | 64.43153 | -46.54206 | 35423 ft | 507 kts | 253° |
| 2026-04-17 16:36 | 64.41391 | -46.69977 | 35419 ft | 506 kts | 253° |
| 2026-04-17 16:37 | 64.39610 | -46.85737 | 35471 ft | 506 kts | 253° |
| 2026-04-17 16:37 | 64.37812 | -47.01476 | 35473 ft | 507 kts | 253° |
| 2026-04-17 16:38 | 64.35992 | -47.17237 | 35515 ft | 511 kts | 253° |
| 2026-04-17 16:38 | 64.34150 | -47.33030 | 35511 ft | 510 kts | 252° |
| 2026-04-17 16:39 | 64.32290 | -47.48803 | 35546 ft | 508 kts | 252° |
| 2026-04-17 16:39 | 64.30415 | -47.64529 | 35573 ft | 508 kts | 252° |
| 2026-04-17 16:40 | 64.28538 | -47.80126 | 35571 ft | 508 kts | 252° |
| 2026-04-17 16:40 | 64.26617 | -47.95921 | 35600 ft | 509 kts | 252° |
| 2026-04-17 16:41 | 64.24707 | -48.11475 | 35622 ft | 509 kts | 251° |
| 2026-04-17 16:41 | 64.22767 | -48.27103 | 35652 ft | 508 kts | 252° |
| 2026-04-17 16:42 | 64.20824 | -48.42614 | 35649 ft | 505 kts | 252° |
| 2026-04-17 16:42 | 64.18863 | -48.58103 | 35691 ft | 505 kts | 252° |
| 2026-04-17 16:43 | 64.16876 | -48.73652 | 35688 ft | 508 kts | 252° |
| 2026-04-17 16:43 | 64.14870 | -48.89195 | 35687 ft | 508 kts | 251° |
| 2026-04-17 16:44 | 64.12848 | -49.04712 | 35699 ft | 509 kts | 251° |
| 2026-04-17 16:44 | 64.10813 | -49.20182 | 35684 ft | 504 kts | 251° |
| 2026-04-17 16:45 | 64.08774 | -49.35527 | 35685 ft | 505 kts | 251° |
| 2026-04-17 16:45 | 64.06720 | -49.50855 | 35683 ft | 504 kts | 251° |
| 2026-04-17 16:46 | 64.04648 | -49.66165 | 35689 ft | 505 kts | 251° |
| 2026-04-17 16:46 | 64.02557 | -49.81478 | 35684 ft | 506 kts | 251° |
| 2026-04-17 16:47 | 64.00448 | -49.96776 | 35699 ft | 506 kts | 251° |
| 2026-04-17 16:47 | 63.98143 | -50.11832 | 35690 ft | 502 kts | 249° |
| 2026-04-17 16:48 | 63.95828 | -50.26849 | 35692 ft | 503 kts | 249° |
| 2026-04-17 16:48 | 63.93846 | -50.39287 | 35705 ft | 503 kts | 249° |
| 2026-04-17 16:49 | 63.91482 | -50.54250 | 35705 ft | 503 kts | 249° |
| 2026-04-17 16:49 | 63.89090 | -50.69152 | 35707 ft | 502 kts | 248° |
| 2026-04-17 16:50 | 63.86688 | -50.84042 | 35711 ft | 502 kts | 249° |
| 2026-04-17 16:50 | 63.84277 | -50.98857 | 35710 ft | 501 kts | 248° |
| 2026-04-17 16:51 | 63.81847 | -51.13671 | 35708 ft | 502 kts | 248° |
| 2026-04-17 16:51 | 63.79400 | -51.28477 | 35707 ft | 502 kts | 248° |
| 2026-04-17 16:52 | 63.76937 | -51.43254 | 35709 ft | 502 kts | 248° |
| 2026-04-17 16:52 | 63.74466 | -51.57970 | 35704 ft | 501 kts | 248° |
| 2026-04-17 16:53 | 63.71969 | -51.72715 | 35700 ft | 503 kts | 248° |
| 2026-04-17 16:53 | 63.69476 | -51.87329 | 35700 ft | 503 kts | 248° |
| 2026-04-17 16:54 | 63.66952 | -52.02008 | 35702 ft | 502 kts | 248° |
| 2026-04-17 16:54 | 63.64412 | -52.16668 | 35697 ft | 502 kts | 248° |
| 2026-04-17 16:55 | 63.61860 | -52.31292 | 35701 ft | 502 kts | 247° |
| 2026-04-17 16:55 | 63.59292 | -52.45885 | 35702 ft | 502 kts | 248° |
| 2026-04-17 16:56 | 63.56720 | -52.60403 | 35705 ft | 500 kts | 247° |
| 2026-04-17 16:56 | 63.54132 | -52.74892 | 35704 ft | 501 kts | 247° |
| 2026-04-17 16:57 | 63.51527 | -52.89379 | 35704 ft | 501 kts | 247° |
| 2026-04-17 16:57 | 63.48907 | -53.03832 | 35706 ft | 501 kts | 247° |
| 2026-04-17 16:58 | 63.46253 | -53.18368 | 35702 ft | 505 kts | 247° |
| 2026-04-17 16:58 | 63.43589 | -53.32855 | 35703 ft | 502 kts | 247° |
| 2026-04-17 16:59 | 63.40923 | -53.47241 | 35694 ft | 502 kts | 247° |
| 2026-04-17 16:59 | 63.38240 | -53.61615 | 35700 ft | 502 kts | 246° |
| 2026-04-17 17:00 | 63.35544 | -53.75958 | 35700 ft | 502 kts | 246° |
| 2026-04-17 17:00 | 63.32837 | -53.90257 | 35693 ft | 501 kts | 246° |
| 2026-04-17 17:01 | 63.30114 | -54.04531 | 35693 ft | 501 kts | 246° |
| 2026-04-17 17:01 | 63.27376 | -54.18786 | 35695 ft | 502 kts | 246° |
| 2026-04-17 17:02 | 63.24624 | -54.33016 | 35699 ft | 502 kts | 246° |
| 2026-04-17 17:02 | 63.21857 | -54.47221 | 35697 ft | 502 kts | 246° |
| 2026-04-17 17:03 | 63.19063 | -54.61463 | 35694 ft | 504 kts | 246° |
| 2026-04-17 17:03 | 63.16254 | -54.75680 | 35697 ft | 504 kts | 246° |
| 2026-04-17 17:04 | 63.13449 | -54.89780 | 35693 ft | 497 kts | 246° |
| 2026-04-17 17:04 | 63.10642 | -55.03795 | 35691 ft | 499 kts | 246° |
| 2026-04-17 17:05 | 63.07818 | -55.17797 | 35693 ft | 499 kts | 246° |
| 2026-04-17 17:05 | 63.04979 | -55.31774 | 35693 ft | 499 kts | 245° |
| 2026-04-17 17:06 | 63.02129 | -55.45716 | 35700 ft | 499 kts | 245° |
| 2026-04-17 17:06 | 62.99282 | -55.59544 | 35698 ft | 498 kts | 245° |
| 2026-04-17 17:07 | 62.96424 | -55.73340 | 35698 ft | 496 kts | 245° |
| 2026-04-17 17:07 | 62.93548 | -55.87128 | 35698 ft | 497 kts | 245° |
| 2026-04-17 17:08 | 62.90645 | -56.00953 | 35707 ft | 500 kts | 245° |
| 2026-04-17 17:08 | 62.87725 | -56.14767 | 35707 ft | 499 kts | 245° |
| 2026-04-17 17:09 | 62.84793 | -56.28549 | 35714 ft | 499 kts | 245° |
| 2026-04-17 17:09 | 62.81860 | -56.42240 | 35719 ft | 496 kts | 245° |
| 2026-04-17 17:10 | 62.78924 | -56.55864 | 35718 ft | 497 kts | 245° |
| 2026-04-17 17:10 | 62.75967 | -56.69487 | 35728 ft | 498 kts | 245° |
| 2026-04-17 17:11 | 62.73000 | -56.83077 | 35739 ft | 497 kts | 245° |
| 2026-04-17 17:11 | 62.70022 | -56.96626 | 35746 ft | 496 kts | 245° |
| 2026-04-17 17:12 | 62.67033 | -57.10138 | 35746 ft | 494 kts | 245° |
| 2026-04-17 17:12 | 62.64046 | -57.23558 | 35753 ft | 494 kts | 245° |
| 2026-04-17 17:13 | 62.61039 | -57.36983 | 35760 ft | 496 kts | 245° |
| 2026-04-17 17:13 | 62.58019 | -57.50379 | 35771 ft | 495 kts | 245° |
| 2026-04-17 17:14 | 62.54984 | -57.63759 | 35772 ft | 495 kts | 245° |
| 2026-04-17 17:15 | 62.50413 | -57.83751 | 35788 ft | 492 kts | 245° |
| 2026-04-17 17:15 | 62.47373 | -57.96951 | 35792 ft | 493 kts | 245° |
| 2026-04-17 17:16 | 62.44851 | -58.10637 | 35812 ft | 490 kts | 251° |
| 2026-04-17 17:16 | 62.42500 | -58.24435 | 35813 ft | 487 kts | 251° |
| 2026-04-17 17:16 | 62.41315 | -58.31282 | 36210 ft | 487 kts | 251° |
| 2026-04-17 17:17 | 62.40145 | -58.38045 | 36682 ft | 487 kts | 250° |
| 2026-04-17 17:17 | 62.38962 | -58.44889 | 37134 ft | 488 kts | 251° |
| 2026-04-17 17:17 | 62.37772 | -58.51735 | 37588 ft | 488 kts | 250° |
| 2026-04-17 17:17 | 62.36579 | -58.58552 | 37819 ft | 490 kts | 250° |
| 2026-04-17 17:18 | 62.35377 | -58.65398 | 37808 ft | 483 kts | 250° |
| 2026-04-17 17:18 | 62.32992 | -58.78944 | 37826 ft | 483 kts | 250° |
| 2026-04-17 17:19 | 62.30587 | -58.92491 | 37826 ft | 484 kts | 250° |
| 2026-04-17 17:19 | 62.28170 | -59.06010 | 37832 ft | 484 kts | 250° |
| 2026-04-17 17:20 | 62.25741 | -59.19502 | 37847 ft | 485 kts | 250° |
| 2026-04-17 17:20 | 62.23298 | -59.32979 | 37846 ft | 485 kts | 250° |
| 2026-04-17 17:21 | 62.20842 | -59.46436 | 37854 ft | 485 kts | 250° |
| 2026-04-17 17:21 | 62.18390 | -59.59776 | 37848 ft | 483 kts | 250° |
| 2026-04-17 17:22 | 62.15916 | -59.73147 | 37866 ft | 485 kts | 249° |
| 2026-04-17 17:22 | 62.13422 | -59.86529 | 37868 ft | 486 kts | 250° |
| 2026-04-17 17:23 | 62.10920 | -59.99864 | 37869 ft | 486 kts | 250° |
| 2026-04-17 17:23 | 62.08402 | -60.13200 | 37879 ft | 486 kts | 249° |
| 2026-04-17 17:24 | 62.05870 | -60.26511 | 37885 ft | 485 kts | 249° |
| 2026-04-17 17:24 | 62.03329 | -60.39787 | 37895 ft | 485 kts | 249° |
| 2026-04-17 17:25 | 62.00772 | -60.53055 | 37889 ft | 484 kts | 249° |
| 2026-04-17 17:25 | 61.98204 | -60.66293 | 37895 ft | 484 kts | 249° |
| 2026-04-17 17:26 | 61.95622 | -60.79512 | 37904 ft | 483 kts | 249° |
| 2026-04-17 17:26 | 61.93019 | -60.92754 | 37905 ft | 486 kts | 248° |
| 2026-04-17 17:27 | 61.90396 | -61.06006 | 37904 ft | 484 kts | 249° |
| 2026-04-17 17:27 | 61.87814 | -61.18974 | 37906 ft | 479 kts | 249° |
| 2026-04-17 17:28 | 61.85199 | -61.32019 | 37908 ft | 479 kts | 249° |
| 2026-04-17 17:28 | 61.82572 | -61.45037 | 37908 ft | 480 kts | 249° |
| 2026-04-17 17:29 | 61.79932 | -61.58041 | 37905 ft | 479 kts | 249° |
| 2026-04-17 17:29 | 61.77283 | -61.71005 | 37917 ft | 479 kts | 249° |
| 2026-04-17 17:30 | 61.74622 | -61.83951 | 37917 ft | 480 kts | 248° |
| 2026-04-17 17:30 | 61.71941 | -61.96905 | 37934 ft | 481 kts | 248° |
| 2026-04-17 17:31 | 61.69245 | -62.09855 | 37926 ft | 480 kts | 248° |
| 2026-04-17 17:31 | 61.66542 | -62.22755 | 37926 ft | 481 kts | 248° |
| 2026-04-17 17:32 | 61.63823 | -62.35650 | 37940 ft | 481 kts | 248° |
| 2026-04-17 17:32 | 61.61092 | -62.48519 | 37942 ft | 480 kts | 248° |
| 2026-04-17 17:33 | 61.58353 | -62.61355 | 37968 ft | 480 kts | 248° |
| 2026-04-17 17:33 | 61.55597 | -62.74186 | 37945 ft | 481 kts | 248° |
| 2026-04-17 17:34 | 61.52851 | -62.86890 | 37949 ft | 481 kts | 248° |
| 2026-04-17 17:34 | 61.49980 | -62.99576 | 37982 ft | 483 kts | 240° |
| 2026-04-17 17:35 | 61.45962 | -63.11012 | 37964 ft | 488 kts | 234° |
| 2026-04-17 17:35 | 61.41801 | -63.22250 | 37973 ft | 489 kts | 234° |
| 2026-04-17 17:36 | 61.37651 | -63.33453 | 37974 ft | 486 kts | 234° |
| 2026-04-17 17:36 | 61.33507 | -63.44560 | 37987 ft | 486 kts | 234° |
| 2026-04-17 17:37 | 61.30054 | -63.53788 | 37981 ft | 486 kts | 234° |
| 2026-04-17 17:37 | 61.25890 | -63.64855 | 37993 ft | 486 kts | 234° |
| 2026-04-17 17:38 | 61.21719 | -63.75892 | 37996 ft | 486 kts | 234° |
| 2026-04-17 17:38 | 61.17543 | -63.86885 | 37998 ft | 483 kts | 234° |
| 2026-04-17 17:39 | 61.13379 | -63.97803 | 37995 ft | 484 kts | 234° |
| 2026-04-17 17:39 | 61.09202 | -64.08697 | 38011 ft | 483 kts | 234° |
| 2026-04-17 17:40 | 61.05016 | -64.19565 | 38008 ft | 483 kts | 234° |
| 2026-04-17 17:40 | 61.00822 | -64.30402 | 38022 ft | 483 kts | 234° |
| 2026-04-17 17:41 | 60.96619 | -64.41209 | 38027 ft | 483 kts | 234° |
| 2026-04-17 17:41 | 60.92407 | -64.51993 | 38039 ft | 484 kts | 234° |
| 2026-04-17 17:42 | 60.88178 | -64.62766 | 38040 ft | 484 kts | 234° |
| 2026-04-17 17:42 | 60.83980 | -64.73412 | 38051 ft | 483 kts | 234° |
| 2026-04-17 17:43 | 60.79719 | -64.84166 | 38050 ft | 482 kts | 234° |
| 2026-04-17 17:43 | 60.75511 | -64.94738 | 38066 ft | 482 kts | 234° |
| 2026-04-17 17:44 | 60.71271 | -65.05343 | 38065 ft | 482 kts | 234° |
| 2026-04-17 17:44 | 60.67024 | -65.15914 | 38075 ft | 481 kts | 234° |
| 2026-04-17 17:45 | 60.62770 | -65.26455 | 38075 ft | 481 kts | 234° |
| 2026-04-17 17:45 | 60.58508 | -65.36967 | 38090 ft | 481 kts | 234° |
| 2026-04-17 17:46 | 60.54241 | -65.47443 | 38095 ft | 480 kts | 234° |
| 2026-04-17 17:46 | 60.49978 | -65.57865 | 38102 ft | 480 kts | 234° |
| 2026-04-17 17:47 | 60.45708 | -65.68254 | 38106 ft | 480 kts | 234° |
| 2026-04-17 17:47 | 60.41426 | -65.78626 | 38122 ft | 480 kts | 233° |
| 2026-04-17 17:48 | 60.37127 | -65.88992 | 38123 ft | 482 kts | 233° |
| 2026-04-17 17:48 | 60.32842 | -65.99276 | 38117 ft | 480 kts | 234° |
| 2026-04-17 17:49 | 60.28545 | -66.09547 | 38113 ft | 479 kts | 233° |
| 2026-04-17 17:49 | 60.24245 | -66.19776 | 38119 ft | 479 kts | 233° |
| 2026-04-17 17:50 | 60.19936 | -66.29983 | 38119 ft | 479 kts | 233° |
| 2026-04-17 17:50 | 60.15611 | -66.40181 | 38131 ft | 480 kts | 233° |
| 2026-04-17 17:51 | 60.11277 | -66.50353 | 38139 ft | 478 kts | 233° |
| 2026-04-17 17:51 | 60.06945 | -66.60479 | 38144 ft | 478 kts | 233° |
| 2026-04-17 17:52 | 60.02608 | -66.70571 | 38142 ft | 479 kts | 233° |
| 2026-04-17 17:52 | 59.98259 | -66.80647 | 38147 ft | 479 kts | 233° |
| 2026-04-17 17:53 | 59.93900 | -66.90700 | 38145 ft | 479 kts | 233° |
| 2026-04-17 17:53 | 59.89535 | -67.00723 | 38129 ft | 478 kts | 233° |
| 2026-04-17 17:54 | 59.85173 | -67.10698 | 38142 ft | 478 kts | 233° |
| 2026-04-17 17:54 | 59.80802 | -67.20650 | 38143 ft | 478 kts | 233° |
| 2026-04-17 17:55 | 59.76418 | -67.30587 | 38143 ft | 478 kts | 233° |
| 2026-04-17 17:55 | 59.72026 | -67.40500 | 38150 ft | 479 kts | 233° |
| 2026-04-17 17:56 | 59.67624 | -67.50390 | 38153 ft | 478 kts | 233° |
| 2026-04-17 17:56 | 59.63223 | -67.60239 | 38162 ft | 477 kts | 233° |
| 2026-04-17 17:57 | 59.58824 | -67.70039 | 38155 ft | 477 kts | 233° |
| 2026-04-17 17:57 | 59.54415 | -67.79822 | 38163 ft | 477 kts | 233° |
| 2026-04-17 17:58 | 59.50026 | -67.89516 | 38163 ft | 478 kts | 233° |
| 2026-04-17 17:58 | 59.45595 | -67.99261 | 38191 ft | 477 kts | 233° |
| 2026-04-17 17:59 | 59.41162 | -68.08973 | 38192 ft | 477 kts | 233° |
| 2026-04-17 17:59 | 59.36715 | -68.18670 | 38173 ft | 478 kts | 233° |
| 2026-04-17 18:00 | 59.32264 | -68.28336 | 38189 ft | 478 kts | 233° |
| 2026-04-17 18:00 | 59.27802 | -68.37987 | 38198 ft | 478 kts | 233° |
| 2026-04-17 18:01 | 59.23335 | -68.47605 | 38199 ft | 477 kts | 233° |
| 2026-04-17 18:01 | 59.18866 | -68.57193 | 38201 ft | 477 kts | 233° |
| 2026-04-17 18:02 | 59.14393 | -68.66741 | 38199 ft | 476 kts | 233° |
| 2026-04-17 18:02 | 59.09923 | -68.76249 | 38200 ft | 476 kts | 233° |
| 2026-04-17 18:03 | 59.05445 | -68.85734 | 38201 ft | 477 kts | 232° |
| 2026-04-17 18:03 | 59.00952 | -68.95206 | 38217 ft | 476 kts | 233° |
| 2026-04-17 18:04 | 58.96451 | -69.04663 | 38214 ft | 477 kts | 233° |
| 2026-04-17 18:04 | 58.91941 | -69.14095 | 38228 ft | 477 kts | 232° |
| 2026-04-17 18:05 | 58.87426 | -69.23501 | 38227 ft | 477 kts | 232° |
| 2026-04-17 18:05 | 58.82902 | -69.32886 | 38231 ft | 477 kts | 232° |
| 2026-04-17 18:06 | 58.78374 | -69.42237 | 38230 ft | 476 kts | 232° |
| 2026-04-17 18:06 | 58.73844 | -69.51562 | 38242 ft | 477 kts | 232° |
| 2026-04-17 18:07 | 58.69337 | -69.60793 | 38236 ft | 476 kts | 232° |
| 2026-04-17 18:07 | 58.64776 | -69.70104 | 38242 ft | 475 kts | 232° |
| 2026-04-17 18:08 | 58.60266 | -69.79272 | 38245 ft | 476 kts | 232° |
| 2026-04-17 18:08 | 58.55718 | -69.88473 | 38240 ft | 474 kts | 232° |
| 2026-04-17 18:09 | 58.51171 | -69.97647 | 38243 ft | 475 kts | 232° |
| 2026-04-17 18:09 | 58.46857 | -70.07123 | 38251 ft | 472 kts | 236° |
| 2026-04-17 18:10 | 58.42623 | -70.16702 | 38251 ft | 472 kts | 235° |
| 2026-04-17 18:10 | 58.38380 | -70.26244 | 38252 ft | 472 kts | 236° |
| 2026-04-17 18:11 | 58.34145 | -70.35740 | 38247 ft | 469 kts | 236° |
| 2026-04-17 18:11 | 58.29914 | -70.45187 | 38253 ft | 469 kts | 236° |
| 2026-04-17 18:12 | 58.25676 | -70.54609 | 38254 ft | 469 kts | 236° |
| 2026-04-17 18:12 | 58.21429 | -70.64017 | 38260 ft | 469 kts | 235° |
| 2026-04-17 18:13 | 58.17175 | -70.73399 | 38266 ft | 470 kts | 235° |
| 2026-04-17 18:13 | 58.12914 | -70.82757 | 38277 ft | 467 kts | 236° |
| 2026-04-17 18:14 | 58.08663 | -70.92065 | 38268 ft | 467 kts | 236° |
| 2026-04-17 18:14 | 58.04404 | -71.01344 | 38274 ft | 467 kts | 235° |
| 2026-04-17 18:15 | 58.00144 | -71.10593 | 38270 ft | 467 kts | 235° |
| 2026-04-17 18:15 | 57.95880 | -71.19814 | 38283 ft | 467 kts | 235° |
| 2026-04-17 18:16 | 57.91631 | -71.28963 | 38273 ft | 466 kts | 236° |
| 2026-04-17 18:16 | 57.87354 | -71.38144 | 38278 ft | 467 kts | 236° |
| 2026-04-17 18:17 | 57.83065 | -71.47305 | 38279 ft | 466 kts | 236° |
| 2026-04-17 18:17 | 57.76634 | -71.60984 | 38289 ft | 466 kts | 236° |
| 2026-04-17 18:18 | 57.72333 | -71.70083 | 38285 ft | 467 kts | 236° |
| 2026-04-17 18:18 | 57.68031 | -71.79151 | 38294 ft | 465 kts | 236° |
| 2026-04-17 18:19 | 57.63731 | -71.88185 | 38297 ft | 465 kts | 236° |
| 2026-04-17 18:19 | 57.59423 | -71.97194 | 38296 ft | 465 kts | 236° |
| 2026-04-17 18:20 | 57.55113 | -72.06176 | 38293 ft | 465 kts | 236° |
| 2026-04-17 18:20 | 57.50798 | -72.15133 | 38295 ft | 465 kts | 235° |
| 2026-04-17 18:21 | 57.46477 | -72.24068 | 38301 ft | 465 kts | 235° |
| 2026-04-17 18:21 | 57.42150 | -72.32981 | 38303 ft | 465 kts | 235° |
| 2026-04-17 18:22 | 57.37817 | -72.41874 | 38297 ft | 464 kts | 235° |
| 2026-04-17 18:22 | 57.33485 | -72.50728 | 38304 ft | 463 kts | 235° |
| 2026-04-17 18:23 | 57.29148 | -72.59564 | 38306 ft | 464 kts | 235° |
| 2026-04-17 18:23 | 57.24806 | -72.68368 | 38309 ft | 463 kts | 235° |
| 2026-04-17 18:24 | 57.20459 | -72.77160 | 38311 ft | 464 kts | 235° |
| 2026-04-17 18:24 | 57.16835 | -72.84456 | 38315 ft | 464 kts | 235° |
| 2026-04-17 18:25 | 57.12472 | -72.93215 | 38320 ft | 464 kts | 235° |
| 2026-04-17 18:25 | 57.08101 | -73.01956 | 38324 ft | 464 kts | 235° |
| 2026-04-17 18:26 | 57.03723 | -73.10677 | 38319 ft | 462 kts | 235° |
| 2026-04-17 18:26 | 56.99378 | -73.19306 | 38312 ft | 463 kts | 235° |
| 2026-04-17 18:27 | 56.95000 | -73.27962 | 38312 ft | 463 kts | 235° |
| 2026-04-17 18:27 | 56.90608 | -73.36615 | 38308 ft | 463 kts | 235° |
| 2026-04-17 18:28 | 56.86231 | -73.45205 | 38311 ft | 461 kts | 235° |
| 2026-04-17 18:28 | 56.81855 | -73.53764 | 38332 ft | 459 kts | 235° |
| 2026-04-17 18:29 | 56.77476 | -73.62299 | 38324 ft | 461 kts | 235° |
| 2026-04-17 18:29 | 56.73091 | -73.70810 | 38333 ft | 460 kts | 235° |
| 2026-04-17 18:30 | 56.68730 | -73.79248 | 38330 ft | 460 kts | 234° |
| 2026-04-17 18:30 | 56.64338 | -73.87714 | 38343 ft | 460 kts | 234° |
| 2026-04-17 18:31 | 56.59944 | -73.96151 | 38324 ft | 458 kts | 234° |
| 2026-04-17 18:31 | 56.55550 | -74.04562 | 38345 ft | 460 kts | 234° |
| 2026-04-17 18:32 | 56.51145 | -74.12957 | 38339 ft | 460 kts | 234° |
| 2026-04-17 18:32 | 56.46754 | -74.21301 | 38342 ft | 460 kts | 234° |
| 2026-04-17 18:33 | 56.42342 | -74.29648 | 38340 ft | 458 kts | 234° |
| 2026-04-17 18:33 | 56.37948 | -74.37939 | 38348 ft | 455 kts | 234° |
| 2026-04-17 18:34 | 56.33568 | -74.46172 | 38350 ft | 455 kts | 234° |
| 2026-04-17 18:34 | 56.29175 | -74.54400 | 38349 ft | 456 kts | 234° |
| 2026-04-17 18:35 | 56.24771 | -74.62617 | 38352 ft | 456 kts | 234° |
| 2026-04-17 18:35 | 56.20365 | -74.70811 | 38347 ft | 456 kts | 234° |
| 2026-04-17 18:36 | 56.15959 | -74.78974 | 38335 ft | 453 kts | 235° |
| 2026-04-17 18:36 | 56.11570 | -74.87082 | 38350 ft | 453 kts | 235° |
| 2026-04-17 18:37 | 56.07167 | -74.95182 | 38347 ft | 454 kts | 234° |
| 2026-04-17 18:37 | 56.02756 | -75.03272 | 38350 ft | 454 kts | 234° |
| 2026-04-17 18:38 | 55.98340 | -75.11342 | 38352 ft | 454 kts | 234° |
| 2026-04-17 18:38 | 55.93933 | -75.19360 | 38319 ft | 449 kts | 235° |
| 2026-04-17 18:39 | 55.89567 | -75.27293 | 38363 ft | 449 kts | 234° |
| 2026-04-17 18:39 | 55.85185 | -75.35214 | 38328 ft | 449 kts | 234° |
| 2026-04-17 18:40 | 55.80802 | -75.43116 | 38349 ft | 449 kts | 234° |
| 2026-04-17 18:40 | 55.76415 | -75.50996 | 38340 ft | 449 kts | 234° |
| 2026-04-17 18:41 | 55.72048 | -75.58813 | 38286 ft | 448 kts | 234° |
| 2026-04-17 18:41 | 55.67664 | -75.66637 | 38319 ft | 448 kts | 234° |
| 2026-04-17 18:42 | 55.63264 | -75.74460 | 38317 ft | 448 kts | 234° |
| 2026-04-17 18:42 | 55.59578 | -75.80993 | 38322 ft | 448 kts | 234° |
| 2026-04-17 18:43 | 55.54456 | -75.90044 | 38325 ft | 448 kts | 234° |
| 2026-04-17 18:43 | 55.50046 | -75.97806 | 38284 ft | 447 kts | 234° |
| 2026-04-17 18:44 | 55.45671 | -76.05478 | 38320 ft | 443 kts | 234° |
| 2026-04-17 18:44 | 55.41299 | -76.13130 | 38329 ft | 443 kts | 234° |
| 2026-04-17 18:45 | 55.36918 | -76.20761 | 38328 ft | 443 kts | 234° |
| 2026-04-17 18:45 | 55.32537 | -76.28374 | 38323 ft | 443 kts | 234° |
| 2026-04-17 18:46 | 55.28146 | -76.35976 | 38330 ft | 444 kts | 234° |
| 2026-04-17 18:46 | 55.23745 | -76.43572 | 38331 ft | 444 kts | 234° |
| 2026-04-17 18:47 | 55.19335 | -76.51157 | 38332 ft | 444 kts | 234° |
| 2026-04-17 18:47 | 55.14924 | -76.58719 | 38332 ft | 444 kts | 234° |
| 2026-04-17 18:48 | 55.10507 | -76.66267 | 38328 ft | 444 kts | 234° |
| 2026-04-17 18:48 | 55.06092 | -76.73788 | 38326 ft | 443 kts | 234° |
| 2026-04-17 18:49 | 55.01687 | -76.81267 | 38320 ft | 441 kts | 233° |
| 2026-04-17 18:49 | 54.97290 | -76.88708 | 38319 ft | 441 kts | 233° |
| 2026-04-17 18:50 | 54.92919 | -76.96080 | 38311 ft | 440 kts | 233° |
| 2026-04-17 18:50 | 54.88513 | -77.03492 | 38313 ft | 441 kts | 233° |
| 2026-04-17 18:51 | 54.84095 | -77.10894 | 38312 ft | 441 kts | 233° |
| 2026-04-17 18:51 | 54.79684 | -77.18268 | 38318 ft | 442 kts | 233° |
| 2026-04-17 18:52 | 54.75260 | -77.25632 | 38315 ft | 441 kts | 233° |
| 2026-04-17 18:52 | 54.70830 | -77.32988 | 38321 ft | 441 kts | 233° |
| 2026-04-17 18:53 | 54.66393 | -77.40329 | 38307 ft | 442 kts | 233° |
| 2026-04-17 18:53 | 54.61952 | -77.47654 | 38309 ft | 442 kts | 233° |
| 2026-04-17 18:54 | 54.57521 | -77.54940 | 38304 ft | 440 kts | 233° |
| 2026-04-17 18:54 | 54.53104 | -77.62179 | 38296 ft | 436 kts | 232° |
| 2026-04-17 18:55 | 54.48698 | -77.69384 | 38296 ft | 438 kts | 232° |
| 2026-04-17 18:55 | 54.44278 | -77.76579 | 38294 ft | 437 kts | 232° |
| 2026-04-17 18:56 | 54.39858 | -77.83759 | 38297 ft | 437 kts | 232° |
| 2026-04-17 18:56 | 54.35438 | -77.90914 | 38299 ft | 438 kts | 232° |
| 2026-04-17 18:57 | 54.31008 | -77.98060 | 38294 ft | 437 kts | 232° |
| 2026-04-17 18:57 | 54.26614 | -78.05132 | 38289 ft | 436 kts | 232° |
| 2026-04-17 18:58 | 54.22185 | -78.12235 | 38279 ft | 437 kts | 232° |
| 2026-04-17 18:58 | 54.17752 | -78.19323 | 38280 ft | 437 kts | 232° |
| 2026-04-17 18:59 | 54.13309 | -78.26408 | 38281 ft | 438 kts | 231° |
| 2026-04-17 18:59 | 54.08852 | -78.33486 | 38262 ft | 439 kts | 231° |
| 2026-04-17 19:00 | 54.04373 | -78.40585 | 38270 ft | 440 kts | 231° |
| 2026-04-17 19:00 | 53.99881 | -78.47676 | 38268 ft | 441 kts | 231° |
| 2026-04-17 19:01 | 53.95381 | -78.54762 | 38263 ft | 441 kts | 231° |
| 2026-04-17 19:01 | 53.90871 | -78.61844 | 38252 ft | 443 kts | 231° |
| 2026-04-17 19:02 | 53.86347 | -78.68918 | 38243 ft | 442 kts | 231° |
| 2026-04-17 19:02 | 53.81819 | -78.75983 | 38239 ft | 442 kts | 231° |
| 2026-04-17 19:03 | 53.77289 | -78.83027 | 38232 ft | 442 kts | 231° |
| 2026-04-17 19:03 | 53.72754 | -78.90058 | 38172 ft | 442 kts | 231° |
| 2026-04-17 19:04 | 53.68213 | -78.97078 | 38232 ft | 443 kts | 230° |
| 2026-04-17 19:04 | 53.63669 | -79.04077 | 38225 ft | 442 kts | 230° |
| 2026-04-17 19:05 | 53.59135 | -79.11044 | 38221 ft | 442 kts | 230° |
| 2026-04-17 19:05 | 53.54586 | -79.18012 | 38217 ft | 443 kts | 230° |
| 2026-04-17 19:06 | 53.50018 | -79.24986 | 38201 ft | 443 kts | 230° |
| 2026-04-17 19:06 | 53.45467 | -79.31912 | 38211 ft | 441 kts | 230° |
| 2026-04-17 19:07 | 53.40922 | -79.38812 | 38210 ft | 441 kts | 230° |
| 2026-04-17 19:07 | 53.36364 | -79.45709 | 38210 ft | 442 kts | 230° |
| 2026-04-17 19:08 | 53.31787 | -79.52614 | 38211 ft | 443 kts | 230° |
| 2026-04-17 19:08 | 53.27211 | -79.59494 | 38210 ft | 441 kts | 230° |
| 2026-04-17 19:09 | 53.22645 | -79.66343 | 38207 ft | 441 kts | 230° |
| 2026-04-17 19:09 | 53.18070 | -79.73182 | 38205 ft | 441 kts | 230° |
| 2026-04-17 19:10 | 53.13499 | -79.79995 | 38211 ft | 441 kts | 230° |
| 2026-04-17 19:10 | 53.08927 | -79.86790 | 38209 ft | 441 kts | 230° |
| 2026-04-17 19:11 | 53.04412 | -79.93479 | 38214 ft | 441 kts | 230° |
| 2026-04-17 19:11 | 52.99770 | -80.00168 | 38212 ft | 447 kts | 224° |
| 2026-04-17 19:12 | 52.94540 | -80.05909 | 38212 ft | 452 kts | 222° |
| 2026-04-17 19:12 | 52.89284 | -80.11593 | 38210 ft | 451 kts | 222° |
| 2026-04-17 19:13 | 52.84908 | -80.16304 | 38213 ft | 451 kts | 222° |
| 2026-04-17 19:13 | 52.79608 | -80.22000 | 38193 ft | 452 kts | 222° |
| 2026-04-17 19:14 | 52.74333 | -80.27647 | 38196 ft | 452 kts | 222° |
| 2026-04-17 19:14 | 52.69063 | -80.33277 | 38192 ft | 451 kts | 222° |
| 2026-04-17 19:15 | 52.63833 | -80.38847 | 38183 ft | 450 kts | 222° |
| 2026-04-17 19:15 | 52.58560 | -80.44449 | 38188 ft | 454 kts | 222° |
| 2026-04-17 19:16 | 52.53260 | -80.50056 | 38180 ft | 453 kts | 222° |
| 2026-04-17 19:16 | 52.47975 | -80.55637 | 38177 ft | 452 kts | 222° |
| 2026-04-17 19:17 | 52.42685 | -80.61205 | 38176 ft | 452 kts | 221° |
| 2026-04-17 19:17 | 52.37388 | -80.66763 | 38177 ft | 451 kts | 222° |
| 2026-04-17 19:18 | 52.32101 | -80.72300 | 38176 ft | 452 kts | 222° |
| 2026-04-17 19:18 | 52.26799 | -80.77829 | 38176 ft | 451 kts | 221° |
| 2026-04-17 19:19 | 52.21515 | -80.83329 | 38168 ft | 450 kts | 221° |
| 2026-04-17 19:19 | 52.16227 | -80.88815 | 38137 ft | 450 kts | 222° |
| 2026-04-17 19:20 | 52.10955 | -80.94269 | 38167 ft | 449 kts | 222° |
| 2026-04-17 19:20 | 52.05675 | -80.99718 | 38168 ft | 450 kts | 222° |
| 2026-04-17 19:21 | 52.00387 | -81.05156 | 38166 ft | 450 kts | 222° |
| 2026-04-17 19:21 | 51.95097 | -81.10584 | 38167 ft | 450 kts | 221° |
| 2026-04-17 19:22 | 51.89799 | -81.16004 | 38172 ft | 451 kts | 222° |
| 2026-04-17 19:22 | 51.84488 | -81.21420 | 38169 ft | 451 kts | 221° |
| 2026-04-17 19:23 | 51.76589 | -81.29447 | 38166 ft | 447 kts | 221° |
| 2026-04-17 19:24 | 51.71314 | -81.34793 | 38171 ft | 446 kts | 221° |
| 2026-04-17 19:24 | 51.66097 | -81.40057 | 38164 ft | 442 kts | 221° |
| 2026-04-17 19:25 | 51.60880 | -81.45320 | 38166 ft | 442 kts | 221° |
| 2026-04-17 19:25 | 51.55663 | -81.50557 | 38161 ft | 442 kts | 221° |
| 2026-04-17 19:26 | 51.50443 | -81.55789 | 38121 ft | 442 kts | 221° |
| 2026-04-17 19:26 | 51.45249 | -81.60972 | 38147 ft | 438 kts | 221° |
| 2026-04-17 19:27 | 51.40064 | -81.66146 | 38141 ft | 439 kts | 221° |
| 2026-04-17 19:27 | 51.34875 | -81.71297 | 38142 ft | 438 kts | 221° |
| 2026-04-17 19:28 | 51.29687 | -81.76442 | 38137 ft | 439 kts | 221° |
| 2026-04-17 19:28 | 51.24495 | -81.81569 | 38139 ft | 438 kts | 221° |
| 2026-04-17 19:29 | 51.19309 | -81.86685 | 38125 ft | 438 kts | 221° |
| 2026-04-17 19:29 | 51.14119 | -81.91785 | 38117 ft | 438 kts | 221° |
| 2026-04-17 19:30 | 51.08957 | -81.96842 | 38120 ft | 433 kts | 221° |
| 2026-04-17 19:30 | 51.03810 | -82.01883 | 38124 ft | 436 kts | 220° |
| 2026-04-17 19:31 | 50.98635 | -82.06924 | 38123 ft | 436 kts | 220° |
| 2026-04-17 19:31 | 50.93495 | -82.11926 | 38122 ft | 436 kts | 220° |
| 2026-04-17 19:32 | 50.88316 | -82.16949 | 38115 ft | 436 kts | 220° |
| 2026-04-17 19:32 | 50.83137 | -82.21960 | 38114 ft | 436 kts | 220° |
| 2026-04-17 19:33 | 50.77956 | -82.26960 | 38107 ft | 436 kts | 220° |
| 2026-04-17 19:33 | 50.72771 | -82.31951 | 38101 ft | 436 kts | 220° |
| 2026-04-17 19:34 | 50.67583 | -82.36932 | 38097 ft | 437 kts | 220° |
| 2026-04-17 19:34 | 50.62390 | -82.41903 | 38056 ft | 437 kts | 220° |
| 2026-04-17 19:35 | 50.57186 | -82.46874 | 38093 ft | 438 kts | 220° |
| 2026-04-17 19:35 | 50.51974 | -82.51836 | 38084 ft | 438 kts | 220° |
| 2026-04-17 19:36 | 50.46761 | -82.56790 | 38084 ft | 438 kts | 220° |
| 2026-04-17 19:36 | 50.41554 | -82.61720 | 38073 ft | 435 kts | 219° |
| 2026-04-17 19:37 | 50.36369 | -82.66626 | 38057 ft | 436 kts | 219° |
| 2026-04-17 19:37 | 50.31167 | -82.71524 | 38056 ft | 436 kts | 219° |
| 2026-04-17 19:38 | 50.25966 | -82.76417 | 38049 ft | 436 kts | 219° |
| 2026-04-17 19:38 | 50.20763 | -82.81295 | 38049 ft | 436 kts | 219° |
| 2026-04-17 19:39 | 50.15545 | -82.86177 | 38038 ft | 438 kts | 219° |
| 2026-04-17 19:39 | 50.10320 | -82.91048 | 38031 ft | 438 kts | 219° |
| 2026-04-17 19:40 | 50.05095 | -82.95913 | 38030 ft | 437 kts | 219° |
| 2026-04-17 19:40 | 49.99865 | -83.00765 | 38027 ft | 438 kts | 219° |
| 2026-04-17 19:41 | 49.94634 | -83.05611 | 38034 ft | 439 kts | 218° |
| 2026-04-17 19:41 | 49.89410 | -83.10432 | 38017 ft | 440 kts | 218° |
| 2026-04-17 19:42 | 49.84149 | -83.15279 | 38016 ft | 440 kts | 218° |
| 2026-04-17 19:42 | 49.78885 | -83.20115 | 38005 ft | 440 kts | 218° |
| 2026-04-17 19:43 | 49.73625 | -83.24935 | 37993 ft | 441 kts | 217° |
| 2026-04-17 19:43 | 49.68343 | -83.29762 | 37994 ft | 441 kts | 217° |
| 2026-04-17 19:44 | 49.63096 | -83.34546 | 37988 ft | 440 kts | 217° |
| 2026-04-17 19:44 | 49.57821 | -83.39343 | 37978 ft | 440 kts | 217° |
| 2026-04-17 19:45 | 49.52540 | -83.44134 | 37973 ft | 442 kts | 217° |
| 2026-04-17 19:45 | 49.47244 | -83.48925 | 37971 ft | 441 kts | 217° |
| 2026-04-17 19:46 | 49.41948 | -83.53705 | 37966 ft | 441 kts | 217° |
| 2026-04-17 19:46 | 49.36654 | -83.58471 | 37956 ft | 441 kts | 217° |
| 2026-04-17 19:47 | 49.31361 | -83.63223 | 37952 ft | 441 kts | 217° |
| 2026-04-17 19:47 | 49.26062 | -83.67970 | 37950 ft | 441 kts | 217° |
| 2026-04-17 19:48 | 49.20769 | -83.72698 | 37947 ft | 441 kts | 217° |
| 2026-04-17 19:48 | 49.15473 | -83.77419 | 37935 ft | 440 kts | 217° |
| 2026-04-17 19:49 | 49.10210 | -83.82099 | 37938 ft | 442 kts | 217° |
| 2026-04-17 19:49 | 49.04904 | -83.86801 | 37929 ft | 441 kts | 216° |
| 2026-04-17 19:50 | 48.99598 | -83.91497 | 37928 ft | 441 kts | 216° |
| 2026-04-17 19:50 | 48.94290 | -83.96180 | 37927 ft | 441 kts | 216° |
| 2026-04-17 19:51 | 48.88976 | -84.00859 | 37921 ft | 443 kts | 216° |
| 2026-04-17 19:51 | 48.83642 | -84.05540 | 37906 ft | 443 kts | 216° |
| 2026-04-17 19:52 | 48.78310 | -84.10210 | 37903 ft | 442 kts | 216° |
| 2026-04-17 19:52 | 48.72981 | -84.14866 | 37903 ft | 442 kts | 216° |
| 2026-04-17 19:53 | 48.67652 | -84.19510 | 37903 ft | 442 kts | 216° |
| 2026-04-17 19:53 | 48.62322 | -84.24144 | 37902 ft | 442 kts | 216° |
| 2026-04-17 19:54 | 48.56988 | -84.28769 | 37897 ft | 442 kts | 216° |
| 2026-04-17 19:54 | 48.51652 | -84.33386 | 37900 ft | 443 kts | 216° |
| 2026-04-17 19:55 | 48.46290 | -84.38014 | 37906 ft | 445 kts | 216° |
| 2026-04-17 19:55 | 48.40925 | -84.42629 | 37913 ft | 442 kts | 215° |
| 2026-04-17 19:56 | 48.35590 | -84.47213 | 37902 ft | 442 kts | 215° |
| 2026-04-17 19:56 | 48.30248 | -84.51788 | 37890 ft | 442 kts | 215° |
| 2026-04-17 19:57 | 48.24892 | -84.56367 | 37921 ft | 444 kts | 215° |
| 2026-04-17 19:57 | 48.19520 | -84.60945 | 37923 ft | 444 kts | 215° |
| 2026-04-17 19:58 | 48.14143 | -84.65518 | 37926 ft | 444 kts | 215° |
| 2026-04-17 19:58 | 48.08770 | -84.70076 | 37920 ft | 443 kts | 214° |
| 2026-04-17 19:59 | 48.03423 | -84.74600 | 37911 ft | 440 kts | 214° |
| 2026-04-17 19:59 | 47.98993 | -84.78342 | 37910 ft | 440 kts | 214° |
| 2026-04-17 20:00 | 47.93658 | -84.82837 | 37909 ft | 441 kts | 214° |
| 2026-04-17 20:00 | 47.88320 | -84.87325 | 37915 ft | 440 kts | 214° |
| 2026-04-17 20:01 | 47.82995 | -84.91789 | 37921 ft | 439 kts | 214° |
| 2026-04-17 20:01 | 47.77665 | -84.96248 | 37947 ft | 438 kts | 214° |
| 2026-04-17 20:02 | 47.72368 | -85.00669 | 37937 ft | 437 kts | 214° |
| 2026-04-17 20:02 | 47.67069 | -85.05083 | 37924 ft | 434 kts | 213° |
| 2026-04-17 20:03 | 47.61848 | -85.09418 | 37924 ft | 433 kts | 214° |
| 2026-04-17 20:03 | 47.56588 | -85.13779 | 37917 ft | 433 kts | 213° |
| 2026-04-17 20:04 | 47.51324 | -85.18130 | 37904 ft | 433 kts | 213° |
| 2026-04-17 20:04 | 47.46104 | -85.22438 | 37906 ft | 433 kts | 213° |
| 2026-04-17 20:05 | 47.40811 | -85.26793 | 37897 ft | 432 kts | 213° |
| 2026-04-17 20:05 | 47.35591 | -85.31080 | 37890 ft | 432 kts | 213° |
| 2026-04-17 20:06 | 47.30338 | -85.35383 | 37890 ft | 433 kts | 213° |
| 2026-04-17 20:06 | 47.25057 | -85.39702 | 37883 ft | 436 kts | 213° |
| 2026-04-17 20:07 | 47.19756 | -85.44022 | 37870 ft | 436 kts | 213° |
| 2026-04-17 20:07 | 47.14449 | -85.48341 | 37864 ft | 436 kts | 213° |
| 2026-04-17 20:08 | 47.09137 | -85.52652 | 37845 ft | 436 kts | 213° |
| 2026-04-17 20:08 | 47.03804 | -85.56973 | 37852 ft | 438 kts | 213° |
| 2026-04-17 20:09 | 46.98472 | -85.61279 | 37850 ft | 437 kts | 213° |
| 2026-04-17 20:09 | 46.93138 | -85.65581 | 37852 ft | 438 kts | 213° |
| 2026-04-17 20:10 | 46.87795 | -85.69878 | 37833 ft | 438 kts | 212° |
| 2026-04-17 20:10 | 46.82430 | -85.74184 | 37851 ft | 440 kts | 212° |
| 2026-04-17 20:11 | 46.77063 | -85.78480 | 37843 ft | 440 kts | 212° |
| 2026-04-17 20:11 | 46.71695 | -85.82769 | 37853 ft | 441 kts | 212° |
| 2026-04-17 20:12 | 46.66309 | -85.87060 | 37856 ft | 441 kts | 212° |
| 2026-04-17 20:12 | 46.60918 | -85.91347 | 37864 ft | 442 kts | 212° |
| 2026-04-17 20:13 | 46.55528 | -85.95624 | 37871 ft | 442 kts | 212° |
| 2026-04-17 20:13 | 46.50154 | -85.99912 | 37853 ft | 437 kts | 216° |
| 2026-04-17 20:14 | 46.45256 | -86.05054 | 37868 ft | 434 kts | 219° |
| 2026-04-17 20:14 | 46.40377 | -86.10213 | 37882 ft | 434 kts | 219° |
| 2026-04-17 20:15 | 46.35499 | -86.15385 | 37867 ft | 434 kts | 219° |
| 2026-04-17 20:15 | 46.30626 | -86.20528 | 37877 ft | 433 kts | 219° |
| 2026-04-17 20:16 | 46.25760 | -86.25657 | 37882 ft | 433 kts | 219° |
| 2026-04-17 20:16 | 46.20889 | -86.30778 | 37878 ft | 433 kts | 219° |
| 2026-04-17 20:17 | 46.16024 | -86.35881 | 37873 ft | 433 kts | 219° |
| 2026-04-17 20:17 | 46.11133 | -86.41001 | 37864 ft | 434 kts | 219° |
| 2026-04-17 20:18 | 46.06247 | -86.46103 | 37878 ft | 432 kts | 219° |
| 2026-04-17 20:18 | 46.01382 | -86.51173 | 37881 ft | 432 kts | 219° |
| 2026-04-17 20:19 | 45.96516 | -86.56232 | 37864 ft | 432 kts | 219° |
| 2026-04-17 20:19 | 45.91650 | -86.61280 | 37847 ft | 431 kts | 219° |
| 2026-04-17 20:20 | 45.86761 | -86.66342 | 37882 ft | 434 kts | 219° |
| 2026-04-17 20:20 | 45.81866 | -86.71395 | 37868 ft | 433 kts | 219° |
| 2026-04-17 20:21 | 45.76973 | -86.76439 | 37870 ft | 433 kts | 219° |
| 2026-04-17 20:21 | 45.72078 | -86.81472 | 37855 ft | 433 kts | 219° |
| 2026-04-17 20:22 | 45.67181 | -86.86497 | 37865 ft | 434 kts | 219° |
| 2026-04-17 20:22 | 45.62305 | -86.91486 | 37859 ft | 428 kts | 219° |
| 2026-04-17 20:23 | 45.57455 | -86.96444 | 37854 ft | 429 kts | 219° |
| 2026-04-17 20:23 | 45.52603 | -87.01387 | 37856 ft | 428 kts | 219° |
| 2026-04-17 20:24 | 45.47744 | -87.06331 | 37844 ft | 429 kts | 219° |
| 2026-04-17 20:24 | 45.42879 | -87.11267 | 37847 ft | 429 kts | 219° |
| 2026-04-17 20:24 | 45.40454 | -87.13725 | 37669 ft | 427 kts | 219° |
| 2026-04-17 20:25 | 45.38046 | -87.16161 | 37443 ft | 422 kts | 219° |
| 2026-04-17 20:25 | 45.33351 | -87.20902 | 37264 ft | 406 kts | 220° |
| 2026-04-17 20:25 | 45.31073 | -87.23201 | 37160 ft | 397 kts | 220° |
| 2026-04-17 20:26 | 45.28853 | -87.25439 | 36863 ft | 386 kts | 220° |
| 2026-04-17 20:26 | 45.26674 | -87.27635 | 36654 ft | 382 kts | 220° |
| 2026-04-17 20:26 | 45.24511 | -87.29813 | 36435 ft | 380 kts | 220° |
| 2026-04-17 20:26 | 45.22367 | -87.31968 | 36233 ft | 377 kts | 220° |
| 2026-04-17 20:27 | 45.20231 | -87.34112 | 36042 ft | 375 kts | 220° |
| 2026-04-17 20:27 | 45.18095 | -87.36256 | 35839 ft | 375 kts | 220° |
| 2026-04-17 20:27 | 45.15975 | -87.38381 | 35495 ft | 372 kts | 220° |
| 2026-04-17 20:27 | 45.13862 | -87.40495 | 35062 ft | 371 kts | 220° |
| 2026-04-17 20:28 | 45.11761 | -87.42598 | 34624 ft | 370 kts | 220° |
| 2026-04-17 20:28 | 45.09664 | -87.44696 | 34161 ft | 369 kts | 220° |
| 2026-04-17 20:28 | 45.07563 | -87.46793 | 33663 ft | 369 kts | 220° |
| 2026-04-17 20:28 | 45.05465 | -87.48887 | 33116 ft | 370 kts | 220° |
| 2026-04-17 20:29 | 45.03360 | -87.50985 | 32528 ft | 370 kts | 219° |
| 2026-04-17 20:29 | 45.01251 | -87.53086 | 31963 ft | 371 kts | 219° |
| 2026-04-17 20:29 | 44.99138 | -87.55188 | 31403 ft | 372 kts | 219° |
| 2026-04-17 20:29 | 44.97017 | -87.57297 | 30808 ft | 374 kts | 219° |
| 2026-04-17 20:30 | 44.92744 | -87.61538 | 29523 ft | 377 kts | 219° |
| 2026-04-17 20:30 | 44.90591 | -87.63674 | 28805 ft | 379 kts | 219° |
| 2026-04-17 20:30 | 44.88427 | -87.65816 | 28077 ft | 381 kts | 218° |
| 2026-04-17 20:31 | 44.86221 | -87.67914 | 27305 ft | 385 kts | 212° |
| 2026-04-17 20:31 | 44.83712 | -87.69324 | 26586 ft | 395 kts | 198° |
| 2026-04-17 20:31 | 44.80972 | -87.69904 | 25868 ft | 402 kts | 190° |
| 2026-04-17 20:31 | 44.78165 | -87.70103 | 25136 ft | 405 kts | 187° |
| 2026-04-17 20:32 | 44.75344 | -87.70259 | 24398 ft | 405 kts | 189° |
| 2026-04-17 20:32 | 44.72545 | -87.70665 | 23671 ft | 404 kts | 192° |
| 2026-04-17 20:32 | 44.69766 | -87.71223 | 23061 ft | 402 kts | 193° |
| 2026-04-17 20:32 | 44.67061 | -87.71667 | 22808 ft | 399 kts | 191° |
| 2026-04-17 20:33 | 44.64260 | -87.72043 | 22829 ft | 410 kts | 191° |
| 2026-04-17 20:33 | 44.61437 | -87.72453 | 22832 ft | 408 kts | 191° |
| 2026-04-17 20:33 | 44.58616 | -87.72906 | 22815 ft | 408 kts | 191° |
| 2026-04-17 20:33 | 44.55793 | -87.73352 | 22844 ft | 410 kts | 191° |
| 2026-04-17 20:34 | 44.52953 | -87.73778 | 22846 ft | 410 kts | 191° |
| 2026-04-17 20:34 | 44.50120 | -87.74201 | 22857 ft | 409 kts | 191° |
| 2026-04-17 20:34 | 44.47287 | -87.74635 | 22857 ft | 409 kts | 191° |
| 2026-04-17 20:34 | 44.44458 | -87.75071 | 22853 ft | 410 kts | 191° |
| 2026-04-17 20:35 | 44.41625 | -87.75502 | 22855 ft | 410 kts | 191° |
| 2026-04-17 20:35 | 44.38787 | -87.75931 | 22841 ft | 410 kts | 191° |
| 2026-04-17 20:35 | 44.35945 | -87.76363 | 22848 ft | 411 kts | 191° |
| 2026-04-17 20:35 | 44.33101 | -87.76795 | 22850 ft | 411 kts | 191° |
| 2026-04-17 20:36 | 44.30259 | -87.77226 | 22847 ft | 411 kts | 191° |
| 2026-04-17 20:36 | 44.27454 | -87.77650 | 22829 ft | 411 kts | 191° |
| 2026-04-17 20:36 | 44.24616 | -87.78080 | 22826 ft | 410 kts | 191° |
| 2026-04-17 20:36 | 44.21748 | -87.78513 | 22822 ft | 410 kts | 191° |
| 2026-04-17 20:37 | 44.18905 | -87.78942 | 22822 ft | 411 kts | 191° |
| 2026-04-17 20:37 | 44.16089 | -87.79368 | 22819 ft | 412 kts | 191° |
| 2026-04-17 20:37 | 44.13200 | -87.79802 | 22822 ft | 412 kts | 191° |
| 2026-04-17 20:37 | 44.10346 | -87.80231 | 22822 ft | 412 kts | 191° |
| 2026-04-17 20:38 | 44.07493 | -87.80647 | 22822 ft | 412 kts | 191° |
| 2026-04-17 20:38 | 44.04634 | -87.81033 | 22825 ft | 413 kts | 191° |
| 2026-04-17 20:38 | 44.01779 | -87.81418 | 22829 ft | 412 kts | 191° |
| 2026-04-17 20:38 | 43.98923 | -87.81820 | 22835 ft | 413 kts | 191° |
| 2026-04-17 20:39 | 43.96058 | -87.82225 | 22842 ft | 414 kts | 191° |
| 2026-04-17 20:39 | 43.93187 | -87.82621 | 22839 ft | 414 kts | 191° |
| 2026-04-17 20:39 | 43.90318 | -87.83015 | 22834 ft | 414 kts | 191° |
| 2026-04-17 20:39 | 43.87447 | -87.83412 | 22828 ft | 415 kts | 191° |
| 2026-04-17 20:40 | 43.84613 | -87.83806 | 22831 ft | 415 kts | 191° |
| 2026-04-17 20:40 | 43.81706 | -87.84207 | 22832 ft | 414 kts | 191° |
| 2026-04-17 20:40 | 43.78841 | -87.84602 | 22779 ft | 414 kts | 191° |
| 2026-04-17 20:40 | 43.75961 | -87.84828 | 22372 ft | 416 kts | 184° |
| 2026-04-17 20:41 | 43.73052 | -87.84649 | 21732 ft | 418 kts | 182° |
| 2026-04-17 20:41 | 43.70151 | -87.84486 | 21071 ft | 417 kts | 182° |
| 2026-04-17 20:41 | 43.68234 | -87.84388 | 20630 ft | 414 kts | 182° |
| 2026-04-17 20:41 | 43.65388 | -87.84232 | 20358 ft | 401 kts | 182° |
| 2026-04-17 20:42 | 43.62659 | -87.84012 | 20356 ft | 386 kts | 180° |
| 2026-04-17 20:42 | 43.59987 | -87.83708 | 20034 ft | 391 kts | 180° |
| 2026-04-17 20:42 | 43.57206 | -87.83415 | 19432 ft | 408 kts | 180° |
| 2026-04-17 20:42 | 43.54360 | -87.83102 | 18773 ft | 410 kts | 179° |
| 2026-04-17 20:43 | 43.51525 | -87.82832 | 18111 ft | 405 kts | 184° |
| 2026-04-17 20:43 | 43.48757 | -87.83195 | 17427 ft | 395 kts | 193° |
| 2026-04-17 20:43 | 43.46082 | -87.83916 | 16795 ft | 389 kts | 194° |
| 2026-04-17 20:43 | 43.43441 | -87.84623 | 16179 ft | 384 kts | 194° |
| 2026-04-17 20:44 | 43.40831 | -87.85308 | 15536 ft | 380 kts | 194° |
| 2026-04-17 20:44 | 43.38250 | -87.85985 | 14921 ft | 376 kts | 194° |
| 2026-04-17 20:44 | 43.35684 | -87.86648 | 14184 ft | 377 kts | 191° |
| 2026-04-17 20:44 | 43.33079 | -87.86563 | 14031 ft | 375 kts | 174° |
| 2026-04-17 20:45 | 43.30514 | -87.85482 | 14032 ft | 390 kts | 161° |
| 2026-04-17 20:45 | 43.28032 | -87.83965 | 14034 ft | 393 kts | 160° |
| 2026-04-17 20:45 | 43.25541 | -87.82445 | 14029 ft | 391 kts | 161° |
| 2026-04-17 20:45 | 43.23031 | -87.81002 | 14032 ft | 391 kts | 162° |
| 2026-04-17 20:46 | 43.20546 | -87.79591 | 14018 ft | 392 kts | 161° |
| 2026-04-17 20:46 | 43.18003 | -87.78110 | 14018 ft | 392 kts | 161° |
| 2026-04-17 20:46 | 43.15533 | -87.76658 | 14018 ft | 391 kts | 161° |
| 2026-04-17 20:46 | 43.13026 | -87.75201 | 14020 ft | 392 kts | 161° |
| 2026-04-17 20:47 | 43.10518 | -87.73754 | 14010 ft | 392 kts | 161° |
| 2026-04-17 20:47 | 43.08007 | -87.72302 | 14011 ft | 392 kts | 161° |
| 2026-04-17 20:47 | 43.05494 | -87.70844 | 14004 ft | 392 kts | 161° |
| 2026-04-17 20:47 | 43.02995 | -87.69396 | 14002 ft | 388 kts | 161° |
| 2026-04-17 20:48 | 43.00504 | -87.67958 | 14003 ft | 389 kts | 161° |
| 2026-04-17 20:48 | 42.98009 | -87.66520 | 14003 ft | 389 kts | 161° |
| 2026-04-17 20:48 | 42.95509 | -87.65078 | 14004 ft | 390 kts | 161° |
| 2026-04-17 20:48 | 42.93012 | -87.63637 | 14006 ft | 390 kts | 161° |
| 2026-04-17 20:49 | 42.90482 | -87.62181 | 14008 ft | 390 kts | 161° |
| 2026-04-17 20:49 | 42.87985 | -87.60745 | 14022 ft | 389 kts | 161° |
| 2026-04-17 20:49 | 42.85536 | -87.59337 | 13642 ft | 386 kts | 161° |
| 2026-04-17 20:49 | 42.83069 | -87.57936 | 13017 ft | 381 kts | 163° |
| 2026-04-17 20:50 | 42.80601 | -87.56671 | 12406 ft | 378 kts | 163° |
| 2026-04-17 20:50 | 42.78160 | -87.55383 | 11819 ft | 374 kts | 162° |
| 2026-04-17 20:50 | 42.75741 | -87.54106 | 11238 ft | 371 kts | 162° |
| 2026-04-17 20:50 | 42.73342 | -87.52884 | 10665 ft | 365 kts | 166° |
| 2026-04-17 20:51 | 42.70881 | -87.52268 | 10178 ft | 355 kts | 179° |
| 2026-04-17 20:51 | 42.68423 | -87.52087 | 10043 ft | 356 kts | 180° |
| 2026-04-17 20:51 | 42.65953 | -87.51917 | 10045 ft | 357 kts | 180° |
| 2026-04-17 20:51 | 42.63474 | -87.51741 | 10042 ft | 357 kts | 180° |
| 2026-04-17 20:52 | 42.60993 | -87.51559 | 10041 ft | 357 kts | 180° |
| 2026-04-17 20:52 | 42.58513 | -87.51380 | 10033 ft | 357 kts | 180° |
| 2026-04-17 20:52 | 42.56033 | -87.51202 | 10029 ft | 356 kts | 180° |
| 2026-04-17 20:52 | 42.53555 | -87.51026 | 10032 ft | 357 kts | 180° |
| 2026-04-17 20:53 | 42.51093 | -87.51136 | 10035 ft | 354 kts | 188° |
| 2026-04-17 20:53 | 42.48643 | -87.51468 | 10033 ft | 354 kts | 188° |
| 2026-04-17 20:53 | 42.46189 | -87.51789 | 10033 ft | 354 kts | 188° |
| 2026-04-17 20:53 | 42.43742 | -87.52111 | 10033 ft | 354 kts | 188° |
| 2026-04-17 20:54 | 42.41290 | -87.52437 | 10037 ft | 354 kts | 188° |
| 2026-04-17 20:54 | 42.38840 | -87.52762 | 10036 ft | 354 kts | 188° |
| 2026-04-17 20:54 | 42.36391 | -87.53085 | 10027 ft | 351 kts | 188° |
| 2026-04-17 20:54 | 42.33956 | -87.53406 | 9976 ft | 351 kts | 188° |
| 2026-04-17 20:55 | 42.31531 | -87.53724 | 9857 ft | 350 kts | 188° |
| 2026-04-17 20:55 | 42.29115 | -87.54034 | 9738 ft | 348 kts | 188° |
| 2026-04-17 20:55 | 42.26701 | -87.54345 | 9610 ft | 348 kts | 188° |
| 2026-04-17 20:55 | 42.24295 | -87.54657 | 9477 ft | 347 kts | 188° |
| 2026-04-17 20:56 | 42.21894 | -87.54967 | 9335 ft | 346 kts | 188° |
| 2026-04-17 20:56 | 42.19538 | -87.55269 | 9056 ft | 331 kts | 188° |
| 2026-04-17 20:56 | 42.17320 | -87.55551 | 8758 ft | 309 kts | 188° |
| 2026-04-17 20:56 | 42.15245 | -87.55819 | 8444 ft | 291 kts | 188° |
| 2026-04-17 20:57 | 42.13276 | -87.56075 | 8162 ft | 277 kts | 188° |
| 2026-04-17 20:57 | 42.11391 | -87.56319 | 7896 ft | 270 kts | 187° |
| 2026-04-17 20:57 | 42.09538 | -87.56558 | 7690 ft | 265 kts | 187° |
| 2026-04-17 20:57 | 42.07737 | -87.56789 | 7482 ft | 262 kts | 187° |
| 2026-04-17 20:58 | 42.05926 | -87.57021 | 7310 ft | 252 kts | 187° |
| 2026-04-17 20:58 | 42.04227 | -87.57238 | 7170 ft | 239 kts | 187° |
| 2026-04-17 20:58 | 42.02626 | -87.57443 | 6729 ft | 223 kts | 187° |
| 2026-04-17 20:58 | 42.01134 | -87.57635 | 6037 ft | 214 kts | 187° |
| 2026-04-17 20:59 | 41.99677 | -87.57823 | 5340 ft | 206 kts | 187° |
| 2026-04-17 20:59 | 41.98364 | -87.58309 | 5055 ft | 189 kts | 208° |
| 2026-04-17 20:59 | 41.97331 | -87.59445 | 5045 ft | 195 kts | 225° |
| 2026-04-17 20:59 | 41.96796 | -87.61108 | 5052 ft | 205 kts | 250° |
| 2026-04-17 21:00 | 41.96633 | -87.63034 | 5047 ft | 206 kts | 260° |
| 2026-04-17 21:00 | 41.96613 | -87.64899 | 4999 ft | 190 kts | 261° |
| 2026-04-17 21:00 | 41.96613 | -87.66645 | 5000 ft | 186 kts | 260° |
| 2026-04-17 21:00 | 41.96614 | -87.68322 | 4426 ft | 181 kts | 259° |
| 2026-04-17 21:01 | 41.96604 | -87.69989 | 4055 ft | 181 kts | 260° |
| 2026-04-17 21:01 | 41.96597 | -87.71709 | 4007 ft | 184 kts | 260° |
| 2026-04-17 21:01 | 41.96598 | -87.73375 | 3988 ft | 175 kts | 260° |
| 2026-04-17 21:01 | 41.96597 | -87.75009 | 3975 ft | 174 kts | 261° |
| 2026-04-17 21:02 | 41.96600 | -87.76612 | 3710 ft | 160 kts | 260° |
| 2026-04-17 21:02 | 41.96596 | -87.78031 | 3359 ft | 148 kts | 258° |
| 2026-04-17 21:02 | 41.96590 | -87.79404 | 3032 ft | 147 kts | 259° |
| 2026-04-17 21:02 | 41.96483 | -87.80740 | 2706 ft | 140 kts | 241° |
| 2026-04-17 21:03 | 41.96202 | -87.81980 | 2384 ft | 145 kts | 255° |
| 2026-04-17 21:03 | 41.96190 | -87.83358 | 1982 ft | 140 kts | 241° |
| 2026-04-17 21:03 | 41.95524 | -87.84205 | 1496 ft | 138 kts | 192° |
| 2026-04-17 21:03 | 41.94564 | -87.84087 | 1883 ft | 137 kts | 172° |
| 2026-04-17 21:04 | 41.93717 | -87.83693 | 2849 ft | 125 kts | 161° |
| 2026-04-17 21:04 | 41.92881 | -87.83258 | 3566 ft | 137 kts | 163° |
| 2026-04-17 21:04 | 41.92008 | -87.82458 | 3957 ft | 177 kts | 135° |
| 2026-04-17 21:04 | 41.91606 | -87.80727 | 4317 ft | 215 kts | 102° |
| 2026-04-17 21:05 | 41.91622 | -87.78692 | 4918 ft | 222 kts | 97° |
| 2026-04-17 21:05 | 41.91681 | -87.76554 | 4990 ft | 228 kts | 96° |
| 2026-04-17 21:05 | 41.91751 | -87.74443 | 4753 ft | 218 kts | 96° |
| 2026-04-17 21:05 | 41.91982 | -87.72458 | 4335 ft | 222 kts | 72° |
| 2026-04-17 21:06 | 41.92957 | -87.70868 | 3879 ft | 222 kts | 34° |
| 2026-04-17 21:06 | 41.94411 | -87.70205 | 3641 ft | 221 kts | 9° |
| 2026-04-17 21:06 | 41.95924 | -87.69924 | 3461 ft | 212 kts | 6° |
| 2026-04-17 21:06 | 41.97362 | -87.69751 | 3205 ft | 201 kts | 355° |
| 2026-04-17 21:07 | 41.98744 | -87.69997 | 2706 ft | 198 kts | 343° |
| 2026-04-17 21:07 | 41.99823 | -87.70947 | 2288 ft | 177 kts | 296° |
| 2026-04-17 21:07 | 42.00138 | -87.72351 | 2149 ft | 145 kts | 258° |
| 2026-04-17 21:07 | 41.99914 | -87.73611 | 2264 ft | 131 kts | 233° |
| 2026-04-17 21:08 | 41.99542 | -87.74696 | 1965 ft | 129 kts | 230° |
| 2026-04-17 21:08 | 41.99053 | -87.75704 | 1579 ft | 130 kts | 230° |
| 2026-04-17 21:08 | 41.98623 | -87.76739 | 1302 ft | 125 kts | 239° |